<?xml version="1.0" encoding="UTF-8" standalone="no" ?>
<gpx xmlns="http://www.topografix.com/GPX/1/1" xmlns:xsi="http://www.w3.org/2001/XMLSchema-instance" xsi:schemaLocation="http://www.topografix.com/GPX/1/1 http://www.topografix.com/GPX/1/1/gpx.xsd" version="1.1" creator="VisuGPX - https://www.visugpx.com">
  <metadata>
    <name>Circuit des 4 lacs (depuis Le Frasnois)</name>
    <desc><![CDATA[Des lacs en veux-tu en voilà, très belle région avec une mention particulière pour le lac de Narlay, randonnée assez courte mais qui peut être prolongée par les crêtes du  pic de l'aigle par exemple, les balades ne manquent pas dans ce secteur du Jura.... ]]></desc>
  </metadata>
  <trk>
    <name><![CDATA[15-FEV-17 09:50:06 AM]]></name>
    <trkseg>
      <trkpt lat="46.64182" lon="5.90172">
        <ele>771.6</ele>
        <time>2017-02-15T06:42:15Z</time>
      </trkpt>
      <trkpt lat="46.64183" lon="5.90175">
        <ele>772.56</ele>
        <time>2017-02-15T06:42:24Z</time>
      </trkpt>
      <trkpt lat="46.64192" lon="5.90209">
        <ele>772.08</ele>
        <time>2017-02-15T06:42:41Z</time>
      </trkpt>
      <trkpt lat="46.642" lon="5.90233">
        <ele>770.15</ele>
        <time>2017-02-15T06:42:54Z</time>
      </trkpt>
      <trkpt lat="46.64209" lon="5.90259">
        <ele>767.75</ele>
        <time>2017-02-15T06:43:09Z</time>
      </trkpt>
      <trkpt lat="46.64211" lon="5.90265">
        <ele>767.75</ele>
        <time>2017-02-15T06:43:12Z</time>
      </trkpt>
      <trkpt lat="46.64212" lon="5.90268">
        <ele>767.75</ele>
        <time>2017-02-15T06:43:14Z</time>
      </trkpt>
      <trkpt lat="46.64218" lon="5.90292">
        <ele>765.83</ele>
        <time>2017-02-15T06:43:27Z</time>
      </trkpt>
      <trkpt lat="46.6422" lon="5.90303">
        <ele>765.35</ele>
        <time>2017-02-15T06:43:34Z</time>
      </trkpt>
      <trkpt lat="46.64224" lon="5.90325">
        <ele>763.9</ele>
        <time>2017-02-15T06:43:48Z</time>
      </trkpt>
      <trkpt lat="46.64225" lon="5.90334">
        <ele>762.94</ele>
        <time>2017-02-15T06:43:55Z</time>
      </trkpt>
      <trkpt lat="46.64226" lon="5.90337">
        <ele>762.46</ele>
        <time>2017-02-15T06:43:57Z</time>
      </trkpt>
      <trkpt lat="46.64227" lon="5.90341">
        <ele>761.98</ele>
        <time>2017-02-15T06:44:00Z</time>
      </trkpt>
      <trkpt lat="46.64232" lon="5.90377">
        <ele>759.58</ele>
        <time>2017-02-15T06:44:15Z</time>
      </trkpt>
      <trkpt lat="46.64236" lon="5.90404">
        <ele>757.18</ele>
        <time>2017-02-15T06:44:28Z</time>
      </trkpt>
      <trkpt lat="46.64252" lon="5.90427">
        <ele>754.77</ele>
        <time>2017-02-15T06:44:44Z</time>
      </trkpt>
      <trkpt lat="46.64269" lon="5.90417">
        <ele>753.33</ele>
        <time>2017-02-15T06:44:57Z</time>
      </trkpt>
      <trkpt lat="46.64286" lon="5.90399">
        <ele>751.89</ele>
        <time>2017-02-15T06:45:11Z</time>
      </trkpt>
      <trkpt lat="46.64287" lon="5.90398">
        <ele>751.89</ele>
        <time>2017-02-15T06:45:12Z</time>
      </trkpt>
      <trkpt lat="46.64302" lon="5.90388">
        <ele>749.97</ele>
        <time>2017-02-15T06:45:24Z</time>
      </trkpt>
      <trkpt lat="46.6432" lon="5.90385">
        <ele>748.52</ele>
        <time>2017-02-15T06:45:35Z</time>
      </trkpt>
      <trkpt lat="46.64338" lon="5.90387">
        <ele>748.04</ele>
        <time>2017-02-15T06:45:47Z</time>
      </trkpt>
      <trkpt lat="46.64359" lon="5.90388">
        <ele>748.52</ele>
        <time>2017-02-15T06:46:02Z</time>
      </trkpt>
      <trkpt lat="46.6438" lon="5.90405">
        <ele>748.04</ele>
        <time>2017-02-15T06:46:18Z</time>
      </trkpt>
      <trkpt lat="46.64386" lon="5.90429">
        <ele>747.08</ele>
        <time>2017-02-15T06:46:30Z</time>
      </trkpt>
      <trkpt lat="46.64394" lon="5.90464">
        <ele>746.12</ele>
        <time>2017-02-15T06:46:45Z</time>
      </trkpt>
      <trkpt lat="46.64397" lon="5.90485">
        <ele>745.64</ele>
        <time>2017-02-15T06:46:56Z</time>
      </trkpt>
      <trkpt lat="46.64399" lon="5.90505">
        <ele>745.16</ele>
        <time>2017-02-15T06:47:06Z</time>
      </trkpt>
      <trkpt lat="46.644" lon="5.90525">
        <ele>744.68</ele>
        <time>2017-02-15T06:47:16Z</time>
      </trkpt>
      <trkpt lat="46.64399" lon="5.90546">
        <ele>744.68</ele>
        <time>2017-02-15T06:47:25Z</time>
      </trkpt>
      <trkpt lat="46.64397" lon="5.90564">
        <ele>744.68</ele>
        <time>2017-02-15T06:47:35Z</time>
      </trkpt>
      <trkpt lat="46.64399" lon="5.90588">
        <ele>744.68</ele>
        <time>2017-02-15T06:47:45Z</time>
      </trkpt>
      <trkpt lat="46.644" lon="5.9062">
        <ele>744.2</ele>
        <time>2017-02-15T06:47:58Z</time>
      </trkpt>
      <trkpt lat="46.64409" lon="5.90644">
        <ele>744.2</ele>
        <time>2017-02-15T06:48:10Z</time>
      </trkpt>
      <trkpt lat="46.6441" lon="5.90647">
        <ele>744.2</ele>
        <time>2017-02-15T06:48:12Z</time>
      </trkpt>
      <trkpt lat="46.64414" lon="5.90676">
        <ele>744.2</ele>
        <time>2017-02-15T06:48:25Z</time>
      </trkpt>
      <trkpt lat="46.64418" lon="5.90698">
        <ele>744.68</ele>
        <time>2017-02-15T06:48:34Z</time>
      </trkpt>
      <trkpt lat="46.6442" lon="5.90726">
        <ele>744.2</ele>
        <time>2017-02-15T06:48:48Z</time>
      </trkpt>
      <trkpt lat="46.64422" lon="5.90755">
        <ele>744.2</ele>
        <time>2017-02-15T06:49:01Z</time>
      </trkpt>
      <trkpt lat="46.64423" lon="5.90774">
        <ele>743.72</ele>
        <time>2017-02-15T06:49:10Z</time>
      </trkpt>
      <trkpt lat="46.64424" lon="5.90803">
        <ele>744.2</ele>
        <time>2017-02-15T06:49:23Z</time>
      </trkpt>
      <trkpt lat="46.64424" lon="5.90811">
        <ele>743.72</ele>
        <time>2017-02-15T06:49:28Z</time>
      </trkpt>
      <trkpt lat="46.64426" lon="5.90823">
        <ele>743.72</ele>
        <time>2017-02-15T06:49:33Z</time>
      </trkpt>
      <trkpt lat="46.64431" lon="5.90851">
        <ele>743.24</ele>
        <time>2017-02-15T06:49:46Z</time>
      </trkpt>
      <trkpt lat="46.64438" lon="5.90882">
        <ele>743.72</ele>
        <time>2017-02-15T06:50:01Z</time>
      </trkpt>
      <trkpt lat="46.64443" lon="5.90907">
        <ele>743.72</ele>
        <time>2017-02-15T06:50:14Z</time>
      </trkpt>
      <trkpt lat="46.64447" lon="5.90923">
        <ele>743.24</ele>
        <time>2017-02-15T06:50:22Z</time>
      </trkpt>
      <trkpt lat="46.64453" lon="5.90945">
        <ele>743.72</ele>
        <time>2017-02-15T06:50:33Z</time>
      </trkpt>
      <trkpt lat="46.64457" lon="5.90965">
        <ele>744.2</ele>
        <time>2017-02-15T06:50:42Z</time>
      </trkpt>
      <trkpt lat="46.64464" lon="5.9099">
        <ele>744.2</ele>
        <time>2017-02-15T06:50:55Z</time>
      </trkpt>
      <trkpt lat="46.64466" lon="5.90999">
        <ele>743.72</ele>
        <time>2017-02-15T06:50:59Z</time>
      </trkpt>
      <trkpt lat="46.64469" lon="5.91011">
        <ele>743.72</ele>
        <time>2017-02-15T06:51:05Z</time>
      </trkpt>
      <trkpt lat="46.64476" lon="5.91026">
        <ele>743.72</ele>
        <time>2017-02-15T06:51:14Z</time>
      </trkpt>
      <trkpt lat="46.64477" lon="5.91035">
        <ele>743.72</ele>
        <time>2017-02-15T06:51:18Z</time>
      </trkpt>
      <trkpt lat="46.64481" lon="5.91051">
        <ele>744.2</ele>
        <time>2017-02-15T06:51:25Z</time>
      </trkpt>
      <trkpt lat="46.64485" lon="5.91062">
        <ele>743.72</ele>
        <time>2017-02-15T06:51:31Z</time>
      </trkpt>
      <trkpt lat="46.64489" lon="5.91086">
        <ele>743.72</ele>
        <time>2017-02-15T06:51:42Z</time>
      </trkpt>
      <trkpt lat="46.64497" lon="5.91118">
        <ele>743.72</ele>
        <time>2017-02-15T06:51:57Z</time>
      </trkpt>
      <trkpt lat="46.64498" lon="5.91119">
        <ele>743.72</ele>
        <time>2017-02-15T06:51:58Z</time>
      </trkpt>
      <trkpt lat="46.64497" lon="5.91123">
        <ele>743.72</ele>
        <time>2017-02-15T06:52:00Z</time>
      </trkpt>
      <trkpt lat="46.645" lon="5.91137">
        <ele>743.72</ele>
        <time>2017-02-15T06:52:06Z</time>
      </trkpt>
      <trkpt lat="46.64503" lon="5.91145">
        <ele>743.72</ele>
        <time>2017-02-15T06:52:11Z</time>
      </trkpt>
      <trkpt lat="46.64507" lon="5.91169">
        <ele>743.72</ele>
        <time>2017-02-15T06:52:23Z</time>
      </trkpt>
      <trkpt lat="46.64509" lon="5.91194">
        <ele>743.72</ele>
        <time>2017-02-15T06:52:34Z</time>
      </trkpt>
      <trkpt lat="46.64507" lon="5.91225">
        <ele>744.2</ele>
        <time>2017-02-15T06:52:49Z</time>
      </trkpt>
      <trkpt lat="46.64507" lon="5.91229">
        <ele>744.2</ele>
        <time>2017-02-15T06:52:51Z</time>
      </trkpt>
      <trkpt lat="46.64506" lon="5.91237">
        <ele>744.2</ele>
        <time>2017-02-15T06:52:55Z</time>
      </trkpt>
      <trkpt lat="46.64505" lon="5.9125">
        <ele>744.2</ele>
        <time>2017-02-15T06:53:03Z</time>
      </trkpt>
      <trkpt lat="46.64503" lon="5.91269">
        <ele>744.68</ele>
        <time>2017-02-15T06:53:12Z</time>
      </trkpt>
      <trkpt lat="46.64499" lon="5.913">
        <ele>745.16</ele>
        <time>2017-02-15T06:53:26Z</time>
      </trkpt>
      <trkpt lat="46.64502" lon="5.91329">
        <ele>743.72</ele>
        <time>2017-02-15T06:53:39Z</time>
      </trkpt>
      <trkpt lat="46.64514" lon="5.91352">
        <ele>744.2</ele>
        <time>2017-02-15T06:53:52Z</time>
      </trkpt>
      <trkpt lat="46.64529" lon="5.91369">
        <ele>744.2</ele>
        <time>2017-02-15T06:54:05Z</time>
      </trkpt>
      <trkpt lat="46.64543" lon="5.91386">
        <ele>744.68</ele>
        <time>2017-02-15T06:54:17Z</time>
      </trkpt>
      <trkpt lat="46.64558" lon="5.91404">
        <ele>744.68</ele>
        <time>2017-02-15T06:54:30Z</time>
      </trkpt>
      <trkpt lat="46.64575" lon="5.91418">
        <ele>744.68</ele>
        <time>2017-02-15T06:54:43Z</time>
      </trkpt>
      <trkpt lat="46.64594" lon="5.91432">
        <ele>745.16</ele>
        <time>2017-02-15T06:54:58Z</time>
      </trkpt>
      <trkpt lat="46.64612" lon="5.91445">
        <ele>745.16</ele>
        <time>2017-02-15T06:55:12Z</time>
      </trkpt>
      <trkpt lat="46.6463" lon="5.91459">
        <ele>745.64</ele>
        <time>2017-02-15T06:55:27Z</time>
      </trkpt>
      <trkpt lat="46.64642" lon="5.91474">
        <ele>746.12</ele>
        <time>2017-02-15T06:55:39Z</time>
      </trkpt>
      <trkpt lat="46.64646" lon="5.91496">
        <ele>746.6</ele>
        <time>2017-02-15T06:55:50Z</time>
      </trkpt>
      <trkpt lat="46.64646" lon="5.91498">
        <ele>746.6</ele>
        <time>2017-02-15T06:55:51Z</time>
      </trkpt>
      <trkpt lat="46.64649" lon="5.91512">
        <ele>746.12</ele>
        <time>2017-02-15T06:55:58Z</time>
      </trkpt>
      <trkpt lat="46.64649" lon="5.9152">
        <ele>746.12</ele>
        <time>2017-02-15T06:56:02Z</time>
      </trkpt>
      <trkpt lat="46.6465" lon="5.91524">
        <ele>745.64</ele>
        <time>2017-02-15T06:56:04Z</time>
      </trkpt>
      <trkpt lat="46.64651" lon="5.91552">
        <ele>746.6</ele>
        <time>2017-02-15T06:56:18Z</time>
      </trkpt>
      <trkpt lat="46.64651" lon="5.91553">
        <ele>746.12</ele>
        <time>2017-02-15T06:56:19Z</time>
      </trkpt>
      <trkpt lat="46.64651" lon="5.91557">
        <ele>746.6</ele>
        <time>2017-02-15T06:56:22Z</time>
      </trkpt>
      <trkpt lat="46.6465" lon="5.9156">
        <ele>746.12</ele>
        <time>2017-02-15T06:56:24Z</time>
      </trkpt>
      <trkpt lat="46.64652" lon="5.91574">
        <ele>746.6</ele>
        <time>2017-02-15T06:56:32Z</time>
      </trkpt>
      <trkpt lat="46.64653" lon="5.9158">
        <ele>746.6</ele>
        <time>2017-02-15T06:56:35Z</time>
      </trkpt>
      <trkpt lat="46.64652" lon="5.91606">
        <ele>747.08</ele>
        <time>2017-02-15T06:56:48Z</time>
      </trkpt>
      <trkpt lat="46.64647" lon="5.91625">
        <ele>746.6</ele>
        <time>2017-02-15T06:56:56Z</time>
      </trkpt>
      <trkpt lat="46.64647" lon="5.91629">
        <ele>746.6</ele>
        <time>2017-02-15T06:56:58Z</time>
      </trkpt>
      <trkpt lat="46.6464" lon="5.91649">
        <ele>746.12</ele>
        <time>2017-02-15T06:57:11Z</time>
      </trkpt>
      <trkpt lat="46.64628" lon="5.91666">
        <ele>746.12</ele>
        <time>2017-02-15T06:57:23Z</time>
      </trkpt>
      <trkpt lat="46.64616" lon="5.9169">
        <ele>746.12</ele>
        <time>2017-02-15T06:57:35Z</time>
      </trkpt>
      <trkpt lat="46.64605" lon="5.91705">
        <ele>746.12</ele>
        <time>2017-02-15T06:57:43Z</time>
      </trkpt>
      <trkpt lat="46.64593" lon="5.91721">
        <ele>747.08</ele>
        <time>2017-02-15T06:57:54Z</time>
      </trkpt>
      <trkpt lat="46.64582" lon="5.91739">
        <ele>747.08</ele>
        <time>2017-02-15T06:58:07Z</time>
      </trkpt>
      <trkpt lat="46.6457" lon="5.91753">
        <ele>747.56</ele>
        <time>2017-02-15T06:58:19Z</time>
      </trkpt>
      <trkpt lat="46.64559" lon="5.91766">
        <ele>748.04</ele>
        <time>2017-02-15T06:58:29Z</time>
      </trkpt>
      <trkpt lat="46.64549" lon="5.91785">
        <ele>749.97</ele>
        <time>2017-02-15T06:58:42Z</time>
      </trkpt>
      <trkpt lat="46.64544" lon="5.91796">
        <ele>751.41</ele>
        <time>2017-02-15T06:58:50Z</time>
      </trkpt>
      <trkpt lat="46.64534" lon="5.91811">
        <ele>752.85</ele>
        <time>2017-02-15T06:59:02Z</time>
      </trkpt>
      <trkpt lat="46.64532" lon="5.91814">
        <ele>752.85</ele>
        <time>2017-02-15T06:59:04Z</time>
      </trkpt>
      <trkpt lat="46.64528" lon="5.91823">
        <ele>753.33</ele>
        <time>2017-02-15T06:59:11Z</time>
      </trkpt>
      <trkpt lat="46.64525" lon="5.9183">
        <ele>752.85</ele>
        <time>2017-02-15T06:59:16Z</time>
      </trkpt>
      <trkpt lat="46.6452" lon="5.9185">
        <ele>753.81</ele>
        <time>2017-02-15T06:59:27Z</time>
      </trkpt>
      <trkpt lat="46.64518" lon="5.91869">
        <ele>753.81</ele>
        <time>2017-02-15T06:59:38Z</time>
      </trkpt>
      <trkpt lat="46.64509" lon="5.91889">
        <ele>752.85</ele>
        <time>2017-02-15T06:59:50Z</time>
      </trkpt>
      <trkpt lat="46.64499" lon="5.91909">
        <ele>752.85</ele>
        <time>2017-02-15T07:00:02Z</time>
      </trkpt>
      <trkpt lat="46.64488" lon="5.91933">
        <ele>753.33</ele>
        <time>2017-02-15T07:00:16Z</time>
      </trkpt>
      <trkpt lat="46.64481" lon="5.91946">
        <ele>753.81</ele>
        <time>2017-02-15T07:00:25Z</time>
      </trkpt>
      <trkpt lat="46.6448" lon="5.91953">
        <ele>753.81</ele>
        <time>2017-02-15T07:00:35Z</time>
      </trkpt>
      <trkpt lat="46.64478" lon="5.91954">
        <ele>754.29</ele>
        <time>2017-02-15T07:00:42Z</time>
      </trkpt>
      <trkpt lat="46.64465" lon="5.91957">
        <ele>752.85</ele>
        <time>2017-02-15T07:00:52Z</time>
      </trkpt>
      <trkpt lat="46.64463" lon="5.91957">
        <ele>752.85</ele>
        <time>2017-02-15T07:00:54Z</time>
      </trkpt>
      <trkpt lat="46.64444" lon="5.91954">
        <ele>752.37</ele>
        <time>2017-02-15T07:01:04Z</time>
      </trkpt>
      <trkpt lat="46.64429" lon="5.91948">
        <ele>752.37</ele>
        <time>2017-02-15T07:01:12Z</time>
      </trkpt>
      <trkpt lat="46.64425" lon="5.91947">
        <ele>752.37</ele>
        <time>2017-02-15T07:01:14Z</time>
      </trkpt>
      <trkpt lat="46.64418" lon="5.91946">
        <ele>752.37</ele>
        <time>2017-02-15T07:01:18Z</time>
      </trkpt>
      <trkpt lat="46.64402" lon="5.91929">
        <ele>752.37</ele>
        <time>2017-02-15T07:01:29Z</time>
      </trkpt>
      <trkpt lat="46.64394" lon="5.91923">
        <ele>752.37</ele>
        <time>2017-02-15T07:01:36Z</time>
      </trkpt>
      <trkpt lat="46.64381" lon="5.9191">
        <ele>752.37</ele>
        <time>2017-02-15T07:01:47Z</time>
      </trkpt>
      <trkpt lat="46.64377" lon="5.91905">
        <ele>752.85</ele>
        <time>2017-02-15T07:01:50Z</time>
      </trkpt>
      <trkpt lat="46.64374" lon="5.91901">
        <ele>752.85</ele>
        <time>2017-02-15T07:01:53Z</time>
      </trkpt>
      <trkpt lat="46.64367" lon="5.91896">
        <ele>752.85</ele>
        <time>2017-02-15T07:02:02Z</time>
      </trkpt>
      <trkpt lat="46.64364" lon="5.91894">
        <ele>753.33</ele>
        <time>2017-02-15T07:02:04Z</time>
      </trkpt>
      <trkpt lat="46.64352" lon="5.91883">
        <ele>752.85</ele>
        <time>2017-02-15T07:02:16Z</time>
      </trkpt>
      <trkpt lat="46.6435" lon="5.9188">
        <ele>752.85</ele>
        <time>2017-02-15T07:02:18Z</time>
      </trkpt>
      <trkpt lat="46.64349" lon="5.91879">
        <ele>752.85</ele>
        <time>2017-02-15T07:02:21Z</time>
      </trkpt>
      <trkpt lat="46.6434" lon="5.91868">
        <ele>751.89</ele>
        <time>2017-02-15T07:02:30Z</time>
      </trkpt>
      <trkpt lat="46.64333" lon="5.91865">
        <ele>751.41</ele>
        <time>2017-02-15T07:02:35Z</time>
      </trkpt>
      <trkpt lat="46.64326" lon="5.9186">
        <ele>751.89</ele>
        <time>2017-02-15T07:02:40Z</time>
      </trkpt>
      <trkpt lat="46.6431" lon="5.91858">
        <ele>751.89</ele>
        <time>2017-02-15T07:02:52Z</time>
      </trkpt>
      <trkpt lat="46.64305" lon="5.91857">
        <ele>751.89</ele>
        <time>2017-02-15T07:02:56Z</time>
      </trkpt>
      <trkpt lat="46.64292" lon="5.91845">
        <ele>752.37</ele>
        <time>2017-02-15T07:03:07Z</time>
      </trkpt>
      <trkpt lat="46.64284" lon="5.91839">
        <ele>751.89</ele>
        <time>2017-02-15T07:03:13Z</time>
      </trkpt>
      <trkpt lat="46.64278" lon="5.91832">
        <ele>751.41</ele>
        <time>2017-02-15T07:03:19Z</time>
      </trkpt>
      <trkpt lat="46.64269" lon="5.91817">
        <ele>749.97</ele>
        <time>2017-02-15T07:03:29Z</time>
      </trkpt>
      <trkpt lat="46.64267" lon="5.91812">
        <ele>749.97</ele>
        <time>2017-02-15T07:03:32Z</time>
      </trkpt>
      <trkpt lat="46.64257" lon="5.91796">
        <ele>749.97</ele>
        <time>2017-02-15T07:03:42Z</time>
      </trkpt>
      <trkpt lat="46.64255" lon="5.9179">
        <ele>749.97</ele>
        <time>2017-02-15T07:03:46Z</time>
      </trkpt>
      <trkpt lat="46.64248" lon="5.91776">
        <ele>748.52</ele>
        <time>2017-02-15T07:03:54Z</time>
      </trkpt>
      <trkpt lat="46.64243" lon="5.91769">
        <ele>747.56</ele>
        <time>2017-02-15T07:04:00Z</time>
      </trkpt>
      <trkpt lat="46.64233" lon="5.91753">
        <ele>746.6</ele>
        <time>2017-02-15T07:04:11Z</time>
      </trkpt>
      <trkpt lat="46.6423" lon="5.9175">
        <ele>746.6</ele>
        <time>2017-02-15T07:04:15Z</time>
      </trkpt>
      <trkpt lat="46.64219" lon="5.91734">
        <ele>745.16</ele>
        <time>2017-02-15T07:04:26Z</time>
      </trkpt>
      <trkpt lat="46.64217" lon="5.91729">
        <ele>745.64</ele>
        <time>2017-02-15T07:04:28Z</time>
      </trkpt>
      <trkpt lat="46.64206" lon="5.91713">
        <ele>744.68</ele>
        <time>2017-02-15T07:04:41Z</time>
      </trkpt>
      <trkpt lat="46.64203" lon="5.9171">
        <ele>744.68</ele>
        <time>2017-02-15T07:04:43Z</time>
      </trkpt>
      <trkpt lat="46.64201" lon="5.91707">
        <ele>744.68</ele>
        <time>2017-02-15T07:04:45Z</time>
      </trkpt>
      <trkpt lat="46.6419" lon="5.91693">
        <ele>745.64</ele>
        <time>2017-02-15T07:04:54Z</time>
      </trkpt>
      <trkpt lat="46.64187" lon="5.91688">
        <ele>746.12</ele>
        <time>2017-02-15T07:04:57Z</time>
      </trkpt>
      <trkpt lat="46.64186" lon="5.91686">
        <ele>746.12</ele>
        <time>2017-02-15T07:04:59Z</time>
      </trkpt>
      <trkpt lat="46.64183" lon="5.91685">
        <ele>746.6</ele>
        <time>2017-02-15T07:05:00Z</time>
      </trkpt>
      <trkpt lat="46.64178" lon="5.91678">
        <ele>747.08</ele>
        <time>2017-02-15T07:05:06Z</time>
      </trkpt>
      <trkpt lat="46.64176" lon="5.91676">
        <ele>747.08</ele>
        <time>2017-02-15T07:05:08Z</time>
      </trkpt>
      <trkpt lat="46.64173" lon="5.91673">
        <ele>748.04</ele>
        <time>2017-02-15T07:05:11Z</time>
      </trkpt>
      <trkpt lat="46.64169" lon="5.91671">
        <ele>749</ele>
        <time>2017-02-15T07:05:15Z</time>
      </trkpt>
      <trkpt lat="46.64162" lon="5.91665">
        <ele>750.45</ele>
        <time>2017-02-15T07:05:23Z</time>
      </trkpt>
      <trkpt lat="46.64162" lon="5.91664">
        <ele>750.45</ele>
        <time>2017-02-15T07:05:24Z</time>
      </trkpt>
      <trkpt lat="46.64159" lon="5.91661">
        <ele>751.41</ele>
        <time>2017-02-15T07:05:27Z</time>
      </trkpt>
      <trkpt lat="46.64147" lon="5.91652">
        <ele>752.37</ele>
        <time>2017-02-15T07:05:36Z</time>
      </trkpt>
      <trkpt lat="46.64143" lon="5.91649">
        <ele>752.85</ele>
        <time>2017-02-15T07:05:40Z</time>
      </trkpt>
      <trkpt lat="46.64131" lon="5.91642">
        <ele>753.33</ele>
        <time>2017-02-15T07:05:50Z</time>
      </trkpt>
      <trkpt lat="46.64128" lon="5.91638">
        <ele>753.33</ele>
        <time>2017-02-15T07:05:53Z</time>
      </trkpt>
      <trkpt lat="46.64116" lon="5.91629">
        <ele>753.33</ele>
        <time>2017-02-15T07:06:03Z</time>
      </trkpt>
      <trkpt lat="46.64108" lon="5.9162">
        <ele>754.29</ele>
        <time>2017-02-15T07:06:12Z</time>
      </trkpt>
      <trkpt lat="46.64104" lon="5.91614">
        <ele>754.29</ele>
        <time>2017-02-15T07:06:16Z</time>
      </trkpt>
      <trkpt lat="46.64101" lon="5.91612">
        <ele>754.29</ele>
        <time>2017-02-15T07:06:19Z</time>
      </trkpt>
      <trkpt lat="46.6409" lon="5.91604">
        <ele>753.81</ele>
        <time>2017-02-15T07:06:29Z</time>
      </trkpt>
      <trkpt lat="46.64084" lon="5.91597">
        <ele>754.29</ele>
        <time>2017-02-15T07:06:35Z</time>
      </trkpt>
      <trkpt lat="46.64082" lon="5.91596">
        <ele>754.77</ele>
        <time>2017-02-15T07:06:37Z</time>
      </trkpt>
      <trkpt lat="46.64081" lon="5.91596">
        <ele>754.77</ele>
        <time>2017-02-15T07:06:38Z</time>
      </trkpt>
      <trkpt lat="46.64074" lon="5.91585">
        <ele>754.29</ele>
        <time>2017-02-15T07:06:45Z</time>
      </trkpt>
      <trkpt lat="46.64073" lon="5.91583">
        <ele>754.29</ele>
        <time>2017-02-15T07:06:46Z</time>
      </trkpt>
      <trkpt lat="46.64071" lon="5.9158">
        <ele>754.29</ele>
        <time>2017-02-15T07:06:48Z</time>
      </trkpt>
      <trkpt lat="46.64068" lon="5.91578">
        <ele>754.29</ele>
        <time>2017-02-15T07:06:50Z</time>
      </trkpt>
      <trkpt lat="46.64064" lon="5.91573">
        <ele>754.29</ele>
        <time>2017-02-15T07:06:53Z</time>
      </trkpt>
      <trkpt lat="46.6406" lon="5.91569">
        <ele>753.81</ele>
        <time>2017-02-15T07:06:58Z</time>
      </trkpt>
      <trkpt lat="46.64058" lon="5.91569">
        <ele>754.29</ele>
        <time>2017-02-15T07:06:59Z</time>
      </trkpt>
      <trkpt lat="46.64056" lon="5.91566">
        <ele>754.29</ele>
        <time>2017-02-15T07:07:01Z</time>
      </trkpt>
      <trkpt lat="46.64055" lon="5.91565">
        <ele>753.81</ele>
        <time>2017-02-15T07:07:02Z</time>
      </trkpt>
      <trkpt lat="46.64046" lon="5.91557">
        <ele>753.81</ele>
        <time>2017-02-15T07:07:09Z</time>
      </trkpt>
      <trkpt lat="46.64037" lon="5.91547">
        <ele>753.33</ele>
        <time>2017-02-15T07:07:16Z</time>
      </trkpt>
      <trkpt lat="46.64035" lon="5.91546">
        <ele>752.85</ele>
        <time>2017-02-15T07:07:18Z</time>
      </trkpt>
      <trkpt lat="46.64033" lon="5.91545">
        <ele>752.85</ele>
        <time>2017-02-15T07:07:21Z</time>
      </trkpt>
      <trkpt lat="46.64031" lon="5.91541">
        <ele>752.37</ele>
        <time>2017-02-15T07:07:24Z</time>
      </trkpt>
      <trkpt lat="46.6402" lon="5.91529">
        <ele>750.93</ele>
        <time>2017-02-15T07:07:33Z</time>
      </trkpt>
      <trkpt lat="46.64017" lon="5.91525">
        <ele>751.41</ele>
        <time>2017-02-15T07:07:36Z</time>
      </trkpt>
      <trkpt lat="46.64012" lon="5.91521">
        <ele>750.93</ele>
        <time>2017-02-15T07:07:40Z</time>
      </trkpt>
      <trkpt lat="46.6401" lon="5.91517">
        <ele>750.93</ele>
        <time>2017-02-15T07:07:44Z</time>
      </trkpt>
      <trkpt lat="46.63996" lon="5.91496">
        <ele>751.41</ele>
        <time>2017-02-15T07:07:56Z</time>
      </trkpt>
      <trkpt lat="46.63991" lon="5.91485">
        <ele>751.89</ele>
        <time>2017-02-15T07:08:02Z</time>
      </trkpt>
      <trkpt lat="46.63987" lon="5.91481">
        <ele>751.89</ele>
        <time>2017-02-15T07:08:05Z</time>
      </trkpt>
      <trkpt lat="46.63979" lon="5.91467">
        <ele>753.33</ele>
        <time>2017-02-15T07:08:14Z</time>
      </trkpt>
      <trkpt lat="46.63974" lon="5.91459">
        <ele>753.81</ele>
        <time>2017-02-15T07:08:19Z</time>
      </trkpt>
      <trkpt lat="46.63967" lon="5.9145">
        <ele>753.81</ele>
        <time>2017-02-15T07:08:27Z</time>
      </trkpt>
      <trkpt lat="46.63956" lon="5.91436">
        <ele>754.29</ele>
        <time>2017-02-15T07:08:37Z</time>
      </trkpt>
      <trkpt lat="46.63952" lon="5.91429">
        <ele>755.25</ele>
        <time>2017-02-15T07:08:42Z</time>
      </trkpt>
      <trkpt lat="46.63947" lon="5.91423">
        <ele>755.73</ele>
        <time>2017-02-15T07:08:50Z</time>
      </trkpt>
      <trkpt lat="46.63943" lon="5.91421">
        <ele>756.21</ele>
        <time>2017-02-15T07:08:55Z</time>
      </trkpt>
      <trkpt lat="46.63942" lon="5.9142">
        <ele>756.21</ele>
        <time>2017-02-15T07:08:57Z</time>
      </trkpt>
      <trkpt lat="46.63936" lon="5.91412">
        <ele>756.69</ele>
        <time>2017-02-15T07:09:05Z</time>
      </trkpt>
      <trkpt lat="46.63928" lon="5.91406">
        <ele>757.66</ele>
        <time>2017-02-15T07:09:12Z</time>
      </trkpt>
      <trkpt lat="46.63921" lon="5.91397">
        <ele>758.14</ele>
        <time>2017-02-15T07:09:17Z</time>
      </trkpt>
      <trkpt lat="46.63917" lon="5.91395">
        <ele>758.14</ele>
        <time>2017-02-15T07:09:20Z</time>
      </trkpt>
      <trkpt lat="46.63913" lon="5.91386">
        <ele>758.62</ele>
        <time>2017-02-15T07:09:24Z</time>
      </trkpt>
      <trkpt lat="46.6391" lon="5.91384">
        <ele>758.62</ele>
        <time>2017-02-15T07:09:29Z</time>
      </trkpt>
      <trkpt lat="46.63905" lon="5.9138">
        <ele>759.1</ele>
        <time>2017-02-15T07:09:33Z</time>
      </trkpt>
      <trkpt lat="46.63901" lon="5.91376">
        <ele>759.58</ele>
        <time>2017-02-15T07:09:38Z</time>
      </trkpt>
      <trkpt lat="46.63893" lon="5.91366">
        <ele>761.02</ele>
        <time>2017-02-15T07:09:46Z</time>
      </trkpt>
      <trkpt lat="46.6389" lon="5.91361">
        <ele>760.54</ele>
        <time>2017-02-15T07:09:50Z</time>
      </trkpt>
      <trkpt lat="46.63889" lon="5.91361">
        <ele>761.02</ele>
        <time>2017-02-15T07:09:51Z</time>
      </trkpt>
      <trkpt lat="46.63887" lon="5.91358">
        <ele>761.02</ele>
        <time>2017-02-15T07:09:53Z</time>
      </trkpt>
      <trkpt lat="46.63884" lon="5.91357">
        <ele>761.02</ele>
        <time>2017-02-15T07:09:55Z</time>
      </trkpt>
      <trkpt lat="46.63873" lon="5.91337">
        <ele>762.46</ele>
        <time>2017-02-15T07:10:08Z</time>
      </trkpt>
      <trkpt lat="46.63863" lon="5.91321">
        <ele>763.9</ele>
        <time>2017-02-15T07:10:19Z</time>
      </trkpt>
      <trkpt lat="46.63852" lon="5.91312">
        <ele>764.87</ele>
        <time>2017-02-15T07:10:28Z</time>
      </trkpt>
      <trkpt lat="46.63847" lon="5.91307">
        <ele>765.35</ele>
        <time>2017-02-15T07:10:32Z</time>
      </trkpt>
      <trkpt lat="46.63842" lon="5.91305">
        <ele>765.83</ele>
        <time>2017-02-15T07:10:38Z</time>
      </trkpt>
      <trkpt lat="46.63836" lon="5.91303">
        <ele>766.31</ele>
        <time>2017-02-15T07:10:41Z</time>
      </trkpt>
      <trkpt lat="46.63833" lon="5.91301">
        <ele>766.31</ele>
        <time>2017-02-15T07:10:44Z</time>
      </trkpt>
      <trkpt lat="46.63822" lon="5.91295">
        <ele>766.79</ele>
        <time>2017-02-15T07:10:55Z</time>
      </trkpt>
      <trkpt lat="46.63811" lon="5.91294">
        <ele>768.23</ele>
        <time>2017-02-15T07:11:06Z</time>
      </trkpt>
      <trkpt lat="46.63795" lon="5.91288">
        <ele>770.15</ele>
        <time>2017-02-15T07:11:18Z</time>
      </trkpt>
      <trkpt lat="46.63781" lon="5.91283">
        <ele>768.71</ele>
        <time>2017-02-15T07:11:31Z</time>
      </trkpt>
      <trkpt lat="46.63772" lon="5.91287">
        <ele>768.71</ele>
        <time>2017-02-15T07:11:39Z</time>
      </trkpt>
      <trkpt lat="46.63768" lon="5.91295">
        <ele>770.15</ele>
        <time>2017-02-15T07:11:50Z</time>
      </trkpt>
      <trkpt lat="46.63758" lon="5.91311">
        <ele>772.08</ele>
        <time>2017-02-15T07:12:02Z</time>
      </trkpt>
      <trkpt lat="46.63756" lon="5.91314">
        <ele>772.08</ele>
        <time>2017-02-15T07:12:05Z</time>
      </trkpt>
      <trkpt lat="46.63752" lon="5.91318">
        <ele>772.56</ele>
        <time>2017-02-15T07:12:08Z</time>
      </trkpt>
      <trkpt lat="46.63747" lon="5.91325">
        <ele>773.04</ele>
        <time>2017-02-15T07:12:14Z</time>
      </trkpt>
      <trkpt lat="46.6374" lon="5.91335">
        <ele>774.96</ele>
        <time>2017-02-15T07:12:25Z</time>
      </trkpt>
      <trkpt lat="46.63738" lon="5.91341">
        <ele>775.44</ele>
        <time>2017-02-15T07:12:35Z</time>
      </trkpt>
      <trkpt lat="46.63738" lon="5.91349">
        <ele>776.4</ele>
        <time>2017-02-15T07:12:42Z</time>
      </trkpt>
      <trkpt lat="46.63737" lon="5.91356">
        <ele>776.88</ele>
        <time>2017-02-15T07:12:45Z</time>
      </trkpt>
      <trkpt lat="46.63728" lon="5.9138">
        <ele>778.32</ele>
        <time>2017-02-15T07:12:57Z</time>
      </trkpt>
      <trkpt lat="46.63718" lon="5.91395">
        <ele>779.77</ele>
        <time>2017-02-15T07:13:07Z</time>
      </trkpt>
      <trkpt lat="46.63717" lon="5.91396">
        <ele>779.77</ele>
        <time>2017-02-15T07:13:09Z</time>
      </trkpt>
      <trkpt lat="46.63698" lon="5.9141">
        <ele>781.21</ele>
        <time>2017-02-15T07:13:23Z</time>
      </trkpt>
      <trkpt lat="46.63692" lon="5.91414">
        <ele>780.73</ele>
        <time>2017-02-15T07:13:27Z</time>
      </trkpt>
      <trkpt lat="46.63676" lon="5.91422">
        <ele>780.73</ele>
        <time>2017-02-15T07:13:39Z</time>
      </trkpt>
      <trkpt lat="46.63676" lon="5.91423">
        <ele>780.73</ele>
        <time>2017-02-15T07:13:41Z</time>
      </trkpt>
      <trkpt lat="46.6367" lon="5.91428">
        <ele>780.25</ele>
        <time>2017-02-15T07:13:46Z</time>
      </trkpt>
      <trkpt lat="46.63665" lon="5.91433">
        <ele>780.25</ele>
        <time>2017-02-15T07:13:51Z</time>
      </trkpt>
      <trkpt lat="46.63659" lon="5.91443">
        <ele>779.77</ele>
        <time>2017-02-15T07:14:03Z</time>
      </trkpt>
      <trkpt lat="46.63657" lon="5.91447">
        <ele>780.25</ele>
        <time>2017-02-15T07:14:15Z</time>
      </trkpt>
      <trkpt lat="46.63652" lon="5.91451">
        <ele>779.77</ele>
        <time>2017-02-15T07:14:36Z</time>
      </trkpt>
      <trkpt lat="46.63652" lon="5.91451">
        <ele>779.29</ele>
        <time>2017-02-15T07:14:38Z</time>
      </trkpt>
      <trkpt lat="46.63652" lon="5.91456">
        <ele>779.29</ele>
        <time>2017-02-15T07:14:41Z</time>
      </trkpt>
      <trkpt lat="46.63656" lon="5.91466">
        <ele>779.77</ele>
        <time>2017-02-15T07:14:47Z</time>
      </trkpt>
      <trkpt lat="46.63657" lon="5.91469">
        <ele>780.25</ele>
        <time>2017-02-15T07:14:51Z</time>
      </trkpt>
      <trkpt lat="46.6366" lon="5.9148">
        <ele>780.25</ele>
        <time>2017-02-15T07:14:58Z</time>
      </trkpt>
      <trkpt lat="46.63655" lon="5.9147">
        <ele>779.77</ele>
        <time>2017-02-15T07:15:07Z</time>
      </trkpt>
      <trkpt lat="46.63653" lon="5.91466">
        <ele>780.25</ele>
        <time>2017-02-15T07:15:09Z</time>
      </trkpt>
      <trkpt lat="46.63651" lon="5.91464">
        <ele>779.77</ele>
        <time>2017-02-15T07:15:11Z</time>
      </trkpt>
      <trkpt lat="46.63635" lon="5.91451">
        <ele>779.29</ele>
        <time>2017-02-15T07:15:24Z</time>
      </trkpt>
      <trkpt lat="46.63622" lon="5.91444">
        <ele>778.81</ele>
        <time>2017-02-15T07:15:34Z</time>
      </trkpt>
      <trkpt lat="46.63619" lon="5.91441">
        <ele>779.29</ele>
        <time>2017-02-15T07:15:37Z</time>
      </trkpt>
      <trkpt lat="46.63615" lon="5.91437">
        <ele>778.81</ele>
        <time>2017-02-15T07:15:40Z</time>
      </trkpt>
      <trkpt lat="46.63601" lon="5.91438">
        <ele>779.29</ele>
        <time>2017-02-15T07:15:53Z</time>
      </trkpt>
      <trkpt lat="46.63598" lon="5.91439">
        <ele>778.81</ele>
        <time>2017-02-15T07:15:56Z</time>
      </trkpt>
      <trkpt lat="46.63583" lon="5.91452">
        <ele>776.88</ele>
        <time>2017-02-15T07:16:09Z</time>
      </trkpt>
      <trkpt lat="46.63572" lon="5.91464">
        <ele>774.48</ele>
        <time>2017-02-15T07:16:18Z</time>
      </trkpt>
      <trkpt lat="46.63562" lon="5.91474">
        <ele>773.52</ele>
        <time>2017-02-15T07:16:29Z</time>
      </trkpt>
      <trkpt lat="46.63552" lon="5.91485">
        <ele>774</ele>
        <time>2017-02-15T07:16:41Z</time>
      </trkpt>
      <trkpt lat="46.63547" lon="5.9149">
        <ele>773.04</ele>
        <time>2017-02-15T07:16:46Z</time>
      </trkpt>
      <trkpt lat="46.63542" lon="5.91493">
        <ele>773.52</ele>
        <time>2017-02-15T07:16:50Z</time>
      </trkpt>
      <trkpt lat="46.63526" lon="5.91506">
        <ele>773.04</ele>
        <time>2017-02-15T07:17:02Z</time>
      </trkpt>
      <trkpt lat="46.63518" lon="5.91521">
        <ele>774.96</ele>
        <time>2017-02-15T07:17:14Z</time>
      </trkpt>
      <trkpt lat="46.63518" lon="5.91522">
        <ele>775.44</ele>
        <time>2017-02-15T07:17:15Z</time>
      </trkpt>
      <trkpt lat="46.63518" lon="5.91527">
        <ele>776.4</ele>
        <time>2017-02-15T07:17:19Z</time>
      </trkpt>
      <trkpt lat="46.63518" lon="5.91543">
        <ele>776.88</ele>
        <time>2017-02-15T07:17:28Z</time>
      </trkpt>
      <trkpt lat="46.63503" lon="5.91563">
        <ele>775.92</ele>
        <time>2017-02-15T07:17:39Z</time>
      </trkpt>
      <trkpt lat="46.63492" lon="5.91578">
        <ele>775.92</ele>
        <time>2017-02-15T07:17:48Z</time>
      </trkpt>
      <trkpt lat="46.63478" lon="5.91598">
        <ele>775.44</ele>
        <time>2017-02-15T07:18:01Z</time>
      </trkpt>
      <trkpt lat="46.63473" lon="5.91605">
        <ele>774.96</ele>
        <time>2017-02-15T07:18:06Z</time>
      </trkpt>
      <trkpt lat="46.63471" lon="5.91609">
        <ele>774.96</ele>
        <time>2017-02-15T07:18:08Z</time>
      </trkpt>
      <trkpt lat="46.63461" lon="5.91627">
        <ele>774.48</ele>
        <time>2017-02-15T07:18:21Z</time>
      </trkpt>
      <trkpt lat="46.63452" lon="5.91641">
        <ele>774.48</ele>
        <time>2017-02-15T07:18:30Z</time>
      </trkpt>
      <trkpt lat="46.63446" lon="5.91648">
        <ele>774</ele>
        <time>2017-02-15T07:18:35Z</time>
      </trkpt>
      <trkpt lat="46.63433" lon="5.91672">
        <ele>774</ele>
        <time>2017-02-15T07:18:49Z</time>
      </trkpt>
      <trkpt lat="46.63424" lon="5.91686">
        <ele>773.52</ele>
        <time>2017-02-15T07:18:58Z</time>
      </trkpt>
      <trkpt lat="46.63421" lon="5.9169">
        <ele>773.04</ele>
        <time>2017-02-15T07:19:01Z</time>
      </trkpt>
      <trkpt lat="46.63417" lon="5.91709">
        <ele>772.08</ele>
        <time>2017-02-15T07:19:14Z</time>
      </trkpt>
      <trkpt lat="46.63415" lon="5.91714">
        <ele>772.08</ele>
        <time>2017-02-15T07:19:17Z</time>
      </trkpt>
      <trkpt lat="46.63407" lon="5.91722">
        <ele>770.15</ele>
        <time>2017-02-15T07:19:22Z</time>
      </trkpt>
      <trkpt lat="46.63396" lon="5.91744">
        <ele>769.67</ele>
        <time>2017-02-15T07:19:34Z</time>
      </trkpt>
      <trkpt lat="46.6339" lon="5.91758">
        <ele>769.19</ele>
        <time>2017-02-15T07:19:43Z</time>
      </trkpt>
      <trkpt lat="46.63388" lon="5.91767">
        <ele>769.67</ele>
        <time>2017-02-15T07:19:49Z</time>
      </trkpt>
      <trkpt lat="46.63385" lon="5.91774">
        <ele>770.15</ele>
        <time>2017-02-15T07:19:53Z</time>
      </trkpt>
      <trkpt lat="46.63381" lon="5.91782">
        <ele>770.15</ele>
        <time>2017-02-15T07:19:58Z</time>
      </trkpt>
      <trkpt lat="46.6337" lon="5.918">
        <ele>770.63</ele>
        <time>2017-02-15T07:20:13Z</time>
      </trkpt>
      <trkpt lat="46.63356" lon="5.91799">
        <ele>770.15</ele>
        <time>2017-02-15T07:20:24Z</time>
      </trkpt>
      <trkpt lat="46.63355" lon="5.91797">
        <ele>770.15</ele>
        <time>2017-02-15T07:20:30Z</time>
      </trkpt>
      <trkpt lat="46.63347" lon="5.91799">
        <ele>769.67</ele>
        <time>2017-02-15T07:20:37Z</time>
      </trkpt>
      <trkpt lat="46.63331" lon="5.91812">
        <ele>768.71</ele>
        <time>2017-02-15T07:20:49Z</time>
      </trkpt>
      <trkpt lat="46.63321" lon="5.91822">
        <ele>768.71</ele>
        <time>2017-02-15T07:20:58Z</time>
      </trkpt>
      <trkpt lat="46.63316" lon="5.91827">
        <ele>768.71</ele>
        <time>2017-02-15T07:21:03Z</time>
      </trkpt>
      <trkpt lat="46.63309" lon="5.91846">
        <ele>768.71</ele>
        <time>2017-02-15T07:21:13Z</time>
      </trkpt>
      <trkpt lat="46.63306" lon="5.91876">
        <ele>769.19</ele>
        <time>2017-02-15T07:21:28Z</time>
      </trkpt>
      <trkpt lat="46.63302" lon="5.91896">
        <ele>769.67</ele>
        <time>2017-02-15T07:21:41Z</time>
      </trkpt>
      <trkpt lat="46.63304" lon="5.919">
        <ele>769.67</ele>
        <time>2017-02-15T07:21:51Z</time>
      </trkpt>
      <trkpt lat="46.63304" lon="5.91899">
        <ele>769.19</ele>
        <time>2017-02-15T07:22:00Z</time>
      </trkpt>
      <trkpt lat="46.63288" lon="5.9189">
        <ele>769.19</ele>
        <time>2017-02-15T07:22:12Z</time>
      </trkpt>
      <trkpt lat="46.63284" lon="5.91884">
        <ele>769.19</ele>
        <time>2017-02-15T07:22:16Z</time>
      </trkpt>
      <trkpt lat="46.63278" lon="5.91872">
        <ele>769.19</ele>
        <time>2017-02-15T07:22:25Z</time>
      </trkpt>
      <trkpt lat="46.63275" lon="5.91869">
        <ele>769.19</ele>
        <time>2017-02-15T07:22:28Z</time>
      </trkpt>
      <trkpt lat="46.63274" lon="5.91866">
        <ele>769.19</ele>
        <time>2017-02-15T07:22:29Z</time>
      </trkpt>
      <trkpt lat="46.63266" lon="5.91862">
        <ele>769.19</ele>
        <time>2017-02-15T07:22:35Z</time>
      </trkpt>
      <trkpt lat="46.63261" lon="5.91858">
        <ele>768.71</ele>
        <time>2017-02-15T07:22:38Z</time>
      </trkpt>
      <trkpt lat="46.63259" lon="5.91856">
        <ele>768.71</ele>
        <time>2017-02-15T07:22:41Z</time>
      </trkpt>
      <trkpt lat="46.63248" lon="5.91852">
        <ele>768.71</ele>
        <time>2017-02-15T07:22:50Z</time>
      </trkpt>
      <trkpt lat="46.63238" lon="5.91858">
        <ele>768.71</ele>
        <time>2017-02-15T07:22:58Z</time>
      </trkpt>
      <trkpt lat="46.63223" lon="5.91863">
        <ele>768.71</ele>
        <time>2017-02-15T07:23:08Z</time>
      </trkpt>
      <trkpt lat="46.63216" lon="5.91864">
        <ele>768.23</ele>
        <time>2017-02-15T07:23:16Z</time>
      </trkpt>
      <trkpt lat="46.63199" lon="5.9186">
        <ele>768.71</ele>
        <time>2017-02-15T07:23:26Z</time>
      </trkpt>
      <trkpt lat="46.63198" lon="5.91859">
        <ele>768.23</ele>
        <time>2017-02-15T07:23:36Z</time>
      </trkpt>
      <trkpt lat="46.63193" lon="5.91855">
        <ele>768.23</ele>
        <time>2017-02-15T07:23:40Z</time>
      </trkpt>
      <trkpt lat="46.6319" lon="5.9185">
        <ele>768.71</ele>
        <time>2017-02-15T07:23:44Z</time>
      </trkpt>
      <trkpt lat="46.63181" lon="5.91842">
        <ele>768.71</ele>
        <time>2017-02-15T07:23:51Z</time>
      </trkpt>
      <trkpt lat="46.63175" lon="5.91836">
        <ele>768.71</ele>
        <time>2017-02-15T07:23:57Z</time>
      </trkpt>
      <trkpt lat="46.63159" lon="5.91815">
        <ele>768.23</ele>
        <time>2017-02-15T07:24:10Z</time>
      </trkpt>
      <trkpt lat="46.63141" lon="5.91793">
        <ele>769.19</ele>
        <time>2017-02-15T07:24:25Z</time>
      </trkpt>
      <trkpt lat="46.63129" lon="5.9177">
        <ele>768.71</ele>
        <time>2017-02-15T07:24:40Z</time>
      </trkpt>
      <trkpt lat="46.63121" lon="5.91761">
        <ele>769.19</ele>
        <time>2017-02-15T07:24:56Z</time>
      </trkpt>
      <trkpt lat="46.63115" lon="5.91755">
        <ele>768.71</ele>
        <time>2017-02-15T07:25:02Z</time>
      </trkpt>
      <trkpt lat="46.63113" lon="5.91751">
        <ele>768.71</ele>
        <time>2017-02-15T07:25:04Z</time>
      </trkpt>
      <trkpt lat="46.63103" lon="5.9173">
        <ele>768.23</ele>
        <time>2017-02-15T07:25:17Z</time>
      </trkpt>
      <trkpt lat="46.63097" lon="5.91719">
        <ele>768.71</ele>
        <time>2017-02-15T07:25:23Z</time>
      </trkpt>
      <trkpt lat="46.63088" lon="5.91705">
        <ele>768.71</ele>
        <time>2017-02-15T07:25:33Z</time>
      </trkpt>
      <trkpt lat="46.63087" lon="5.91699">
        <ele>768.71</ele>
        <time>2017-02-15T07:25:35Z</time>
      </trkpt>
      <trkpt lat="46.63086" lon="5.91698">
        <ele>769.19</ele>
        <time>2017-02-15T07:25:37Z</time>
      </trkpt>
      <trkpt lat="46.63076" lon="5.91679">
        <ele>769.19</ele>
        <time>2017-02-15T07:25:47Z</time>
      </trkpt>
      <trkpt lat="46.63072" lon="5.91672">
        <ele>768.71</ele>
        <time>2017-02-15T07:25:51Z</time>
      </trkpt>
      <trkpt lat="46.63068" lon="5.91667">
        <ele>769.19</ele>
        <time>2017-02-15T07:25:54Z</time>
      </trkpt>
      <trkpt lat="46.63065" lon="5.91662">
        <ele>768.71</ele>
        <time>2017-02-15T07:25:57Z</time>
      </trkpt>
      <trkpt lat="46.63063" lon="5.91655">
        <ele>768.23</ele>
        <time>2017-02-15T07:26:01Z</time>
      </trkpt>
      <trkpt lat="46.63062" lon="5.91651">
        <ele>768.71</ele>
        <time>2017-02-15T07:26:02Z</time>
      </trkpt>
      <trkpt lat="46.63059" lon="5.91643">
        <ele>768.71</ele>
        <time>2017-02-15T07:26:08Z</time>
      </trkpt>
      <trkpt lat="46.63056" lon="5.91636">
        <ele>768.71</ele>
        <time>2017-02-15T07:26:11Z</time>
      </trkpt>
      <trkpt lat="46.6305" lon="5.91622">
        <ele>768.23</ele>
        <time>2017-02-15T07:26:18Z</time>
      </trkpt>
      <trkpt lat="46.63042" lon="5.91616">
        <ele>768.23</ele>
        <time>2017-02-15T07:26:25Z</time>
      </trkpt>
      <trkpt lat="46.63034" lon="5.91597">
        <ele>768.23</ele>
        <time>2017-02-15T07:26:32Z</time>
      </trkpt>
      <trkpt lat="46.6303" lon="5.91593">
        <ele>768.23</ele>
        <time>2017-02-15T07:26:36Z</time>
      </trkpt>
      <trkpt lat="46.63027" lon="5.9159">
        <ele>768.71</ele>
        <time>2017-02-15T07:26:39Z</time>
      </trkpt>
      <trkpt lat="46.63023" lon="5.91584">
        <ele>768.23</ele>
        <time>2017-02-15T07:26:44Z</time>
      </trkpt>
      <trkpt lat="46.63016" lon="5.91572">
        <ele>768.23</ele>
        <time>2017-02-15T07:26:52Z</time>
      </trkpt>
      <trkpt lat="46.63011" lon="5.91566">
        <ele>768.23</ele>
        <time>2017-02-15T07:26:58Z</time>
      </trkpt>
      <trkpt lat="46.63003" lon="5.91558">
        <ele>768.23</ele>
        <time>2017-02-15T07:27:06Z</time>
      </trkpt>
      <trkpt lat="46.63003" lon="5.91557">
        <ele>768.71</ele>
        <time>2017-02-15T07:27:07Z</time>
      </trkpt>
      <trkpt lat="46.62995" lon="5.91546">
        <ele>768.23</ele>
        <time>2017-02-15T07:27:14Z</time>
      </trkpt>
      <trkpt lat="46.62991" lon="5.9154">
        <ele>768.23</ele>
        <time>2017-02-15T07:27:18Z</time>
      </trkpt>
      <trkpt lat="46.62987" lon="5.91536">
        <ele>768.23</ele>
        <time>2017-02-15T07:27:21Z</time>
      </trkpt>
      <trkpt lat="46.62982" lon="5.91528">
        <ele>768.71</ele>
        <time>2017-02-15T07:27:27Z</time>
      </trkpt>
      <trkpt lat="46.62977" lon="5.91522">
        <ele>768.23</ele>
        <time>2017-02-15T07:27:33Z</time>
      </trkpt>
      <trkpt lat="46.6297" lon="5.91513">
        <ele>768.23</ele>
        <time>2017-02-15T07:27:39Z</time>
      </trkpt>
      <trkpt lat="46.62968" lon="5.91512">
        <ele>768.23</ele>
        <time>2017-02-15T07:27:41Z</time>
      </trkpt>
      <trkpt lat="46.62968" lon="5.91509">
        <ele>768.23</ele>
        <time>2017-02-15T07:27:43Z</time>
      </trkpt>
      <trkpt lat="46.62964" lon="5.91502">
        <ele>768.23</ele>
        <time>2017-02-15T07:27:47Z</time>
      </trkpt>
      <trkpt lat="46.62963" lon="5.91498">
        <ele>768.23</ele>
        <time>2017-02-15T07:27:49Z</time>
      </trkpt>
      <trkpt lat="46.62955" lon="5.91493">
        <ele>768.23</ele>
        <time>2017-02-15T07:27:55Z</time>
      </trkpt>
      <trkpt lat="46.62949" lon="5.91486">
        <ele>767.75</ele>
        <time>2017-02-15T07:28:00Z</time>
      </trkpt>
      <trkpt lat="46.62943" lon="5.91478">
        <ele>768.23</ele>
        <time>2017-02-15T07:28:08Z</time>
      </trkpt>
      <trkpt lat="46.62935" lon="5.91466">
        <ele>767.75</ele>
        <time>2017-02-15T07:28:17Z</time>
      </trkpt>
      <trkpt lat="46.62931" lon="5.91462">
        <ele>768.23</ele>
        <time>2017-02-15T07:28:21Z</time>
      </trkpt>
      <trkpt lat="46.62929" lon="5.91459">
        <ele>767.75</ele>
        <time>2017-02-15T07:28:23Z</time>
      </trkpt>
      <trkpt lat="46.62924" lon="5.91449">
        <ele>767.75</ele>
        <time>2017-02-15T07:28:30Z</time>
      </trkpt>
      <trkpt lat="46.62922" lon="5.91448">
        <ele>767.75</ele>
        <time>2017-02-15T07:28:32Z</time>
      </trkpt>
      <trkpt lat="46.62918" lon="5.91442">
        <ele>767.75</ele>
        <time>2017-02-15T07:28:35Z</time>
      </trkpt>
      <trkpt lat="46.62917" lon="5.91439">
        <ele>768.23</ele>
        <time>2017-02-15T07:28:37Z</time>
      </trkpt>
      <trkpt lat="46.62915" lon="5.91435">
        <ele>768.23</ele>
        <time>2017-02-15T07:28:39Z</time>
      </trkpt>
      <trkpt lat="46.6291" lon="5.91418">
        <ele>768.23</ele>
        <time>2017-02-15T07:28:50Z</time>
      </trkpt>
      <trkpt lat="46.62908" lon="5.91416">
        <ele>768.23</ele>
        <time>2017-02-15T07:28:53Z</time>
      </trkpt>
      <trkpt lat="46.62905" lon="5.91408">
        <ele>768.23</ele>
        <time>2017-02-15T07:29:03Z</time>
      </trkpt>
      <trkpt lat="46.629" lon="5.91406">
        <ele>768.23</ele>
        <time>2017-02-15T07:29:07Z</time>
      </trkpt>
      <trkpt lat="46.62891" lon="5.91394">
        <ele>768.23</ele>
        <time>2017-02-15T07:29:13Z</time>
      </trkpt>
      <trkpt lat="46.6289" lon="5.91393">
        <ele>768.23</ele>
        <time>2017-02-15T07:29:15Z</time>
      </trkpt>
      <trkpt lat="46.62883" lon="5.91387">
        <ele>768.23</ele>
        <time>2017-02-15T07:29:21Z</time>
      </trkpt>
      <trkpt lat="46.62882" lon="5.91383">
        <ele>768.23</ele>
        <time>2017-02-15T07:29:23Z</time>
      </trkpt>
      <trkpt lat="46.62878" lon="5.91372">
        <ele>767.75</ele>
        <time>2017-02-15T07:29:27Z</time>
      </trkpt>
      <trkpt lat="46.62869" lon="5.91357">
        <ele>768.23</ele>
        <time>2017-02-15T07:29:36Z</time>
      </trkpt>
      <trkpt lat="46.62864" lon="5.91347">
        <ele>767.75</ele>
        <time>2017-02-15T07:29:42Z</time>
      </trkpt>
      <trkpt lat="46.62855" lon="5.91331">
        <ele>768.23</ele>
        <time>2017-02-15T07:29:50Z</time>
      </trkpt>
      <trkpt lat="46.62851" lon="5.91325">
        <ele>768.23</ele>
        <time>2017-02-15T07:29:54Z</time>
      </trkpt>
      <trkpt lat="46.62839" lon="5.91314">
        <ele>768.23</ele>
        <time>2017-02-15T07:30:06Z</time>
      </trkpt>
      <trkpt lat="46.62835" lon="5.91307">
        <ele>768.23</ele>
        <time>2017-02-15T07:30:09Z</time>
      </trkpt>
      <trkpt lat="46.62833" lon="5.91307">
        <ele>767.75</ele>
        <time>2017-02-15T07:30:10Z</time>
      </trkpt>
      <trkpt lat="46.6283" lon="5.91308">
        <ele>768.23</ele>
        <time>2017-02-15T07:30:13Z</time>
      </trkpt>
      <trkpt lat="46.62828" lon="5.91307">
        <ele>768.23</ele>
        <time>2017-02-15T07:30:14Z</time>
      </trkpt>
      <trkpt lat="46.62823" lon="5.91303">
        <ele>767.75</ele>
        <time>2017-02-15T07:30:28Z</time>
      </trkpt>
      <trkpt lat="46.62817" lon="5.91296">
        <ele>767.75</ele>
        <time>2017-02-15T07:30:35Z</time>
      </trkpt>
      <trkpt lat="46.62801" lon="5.91291">
        <ele>768.23</ele>
        <time>2017-02-15T07:30:45Z</time>
      </trkpt>
      <trkpt lat="46.628" lon="5.9129">
        <ele>768.23</ele>
        <time>2017-02-15T07:30:46Z</time>
      </trkpt>
      <trkpt lat="46.6279" lon="5.91274">
        <ele>768.23</ele>
        <time>2017-02-15T07:30:55Z</time>
      </trkpt>
      <trkpt lat="46.62782" lon="5.91267">
        <ele>768.23</ele>
        <time>2017-02-15T07:31:00Z</time>
      </trkpt>
      <trkpt lat="46.6278" lon="5.91265">
        <ele>768.23</ele>
        <time>2017-02-15T07:31:01Z</time>
      </trkpt>
      <trkpt lat="46.62776" lon="5.9126">
        <ele>767.75</ele>
        <time>2017-02-15T07:31:05Z</time>
      </trkpt>
      <trkpt lat="46.62773" lon="5.91259">
        <ele>768.23</ele>
        <time>2017-02-15T07:31:07Z</time>
      </trkpt>
      <trkpt lat="46.62759" lon="5.91247">
        <ele>768.71</ele>
        <time>2017-02-15T07:31:19Z</time>
      </trkpt>
      <trkpt lat="46.62756" lon="5.91243">
        <ele>768.71</ele>
        <time>2017-02-15T07:31:21Z</time>
      </trkpt>
      <trkpt lat="46.62748" lon="5.91238">
        <ele>768.23</ele>
        <time>2017-02-15T07:31:26Z</time>
      </trkpt>
      <trkpt lat="46.62746" lon="5.91235">
        <ele>768.23</ele>
        <time>2017-02-15T07:31:29Z</time>
      </trkpt>
      <trkpt lat="46.62743" lon="5.9123">
        <ele>768.23</ele>
        <time>2017-02-15T07:31:32Z</time>
      </trkpt>
      <trkpt lat="46.62741" lon="5.91228">
        <ele>768.23</ele>
        <time>2017-02-15T07:31:34Z</time>
      </trkpt>
      <trkpt lat="46.6274" lon="5.91227">
        <ele>768.23</ele>
        <time>2017-02-15T07:31:36Z</time>
      </trkpt>
      <trkpt lat="46.62735" lon="5.91221">
        <ele>768.23</ele>
        <time>2017-02-15T07:31:39Z</time>
      </trkpt>
      <trkpt lat="46.62726" lon="5.91206">
        <ele>767.75</ele>
        <time>2017-02-15T07:31:49Z</time>
      </trkpt>
      <trkpt lat="46.62723" lon="5.91206">
        <ele>767.75</ele>
        <time>2017-02-15T07:31:51Z</time>
      </trkpt>
      <trkpt lat="46.6272" lon="5.91206">
        <ele>767.75</ele>
        <time>2017-02-15T07:31:53Z</time>
      </trkpt>
      <trkpt lat="46.62708" lon="5.9119">
        <ele>768.23</ele>
        <time>2017-02-15T07:32:03Z</time>
      </trkpt>
      <trkpt lat="46.62701" lon="5.91185">
        <ele>767.75</ele>
        <time>2017-02-15T07:32:08Z</time>
      </trkpt>
      <trkpt lat="46.62696" lon="5.91176">
        <ele>767.75</ele>
        <time>2017-02-15T07:32:12Z</time>
      </trkpt>
      <trkpt lat="46.62693" lon="5.91173">
        <ele>767.75</ele>
        <time>2017-02-15T07:32:14Z</time>
      </trkpt>
      <trkpt lat="46.62685" lon="5.91162">
        <ele>767.27</ele>
        <time>2017-02-15T07:32:22Z</time>
      </trkpt>
      <trkpt lat="46.62684" lon="5.91159">
        <ele>767.27</ele>
        <time>2017-02-15T07:32:24Z</time>
      </trkpt>
      <trkpt lat="46.62678" lon="5.91153">
        <ele>767.75</ele>
        <time>2017-02-15T07:32:29Z</time>
      </trkpt>
      <trkpt lat="46.62665" lon="5.91145">
        <ele>766.79</ele>
        <time>2017-02-15T07:32:38Z</time>
      </trkpt>
      <trkpt lat="46.62661" lon="5.91138">
        <ele>766.79</ele>
        <time>2017-02-15T07:32:44Z</time>
      </trkpt>
      <trkpt lat="46.62649" lon="5.91125">
        <ele>767.75</ele>
        <time>2017-02-15T07:32:54Z</time>
      </trkpt>
      <trkpt lat="46.62635" lon="5.91107">
        <ele>767.75</ele>
        <time>2017-02-15T07:33:05Z</time>
      </trkpt>
      <trkpt lat="46.6263" lon="5.91101">
        <ele>767.27</ele>
        <time>2017-02-15T07:33:10Z</time>
      </trkpt>
      <trkpt lat="46.62621" lon="5.91084">
        <ele>767.75</ele>
        <time>2017-02-15T07:33:19Z</time>
      </trkpt>
      <trkpt lat="46.62618" lon="5.91081">
        <ele>767.27</ele>
        <time>2017-02-15T07:33:23Z</time>
      </trkpt>
      <trkpt lat="46.62614" lon="5.91075">
        <ele>767.75</ele>
        <time>2017-02-15T07:33:27Z</time>
      </trkpt>
      <trkpt lat="46.62613" lon="5.91071">
        <ele>767.75</ele>
        <time>2017-02-15T07:33:29Z</time>
      </trkpt>
      <trkpt lat="46.62604" lon="5.91067">
        <ele>767.75</ele>
        <time>2017-02-15T07:33:37Z</time>
      </trkpt>
      <trkpt lat="46.62597" lon="5.91057">
        <ele>767.27</ele>
        <time>2017-02-15T07:33:43Z</time>
      </trkpt>
      <trkpt lat="46.62593" lon="5.91055">
        <ele>767.75</ele>
        <time>2017-02-15T07:33:46Z</time>
      </trkpt>
      <trkpt lat="46.62587" lon="5.91047">
        <ele>767.27</ele>
        <time>2017-02-15T07:33:52Z</time>
      </trkpt>
      <trkpt lat="46.62581" lon="5.91036">
        <ele>767.27</ele>
        <time>2017-02-15T07:33:57Z</time>
      </trkpt>
      <trkpt lat="46.62575" lon="5.9103">
        <ele>767.75</ele>
        <time>2017-02-15T07:34:02Z</time>
      </trkpt>
      <trkpt lat="46.62572" lon="5.91026">
        <ele>767.27</ele>
        <time>2017-02-15T07:34:05Z</time>
      </trkpt>
      <trkpt lat="46.62566" lon="5.91019">
        <ele>767.75</ele>
        <time>2017-02-15T07:34:10Z</time>
      </trkpt>
      <trkpt lat="46.62565" lon="5.91015">
        <ele>767.75</ele>
        <time>2017-02-15T07:34:12Z</time>
      </trkpt>
      <trkpt lat="46.62551" lon="5.91005">
        <ele>767.75</ele>
        <time>2017-02-15T07:34:23Z</time>
      </trkpt>
      <trkpt lat="46.62548" lon="5.91002">
        <ele>767.75</ele>
        <time>2017-02-15T07:34:25Z</time>
      </trkpt>
      <trkpt lat="46.62538" lon="5.90994">
        <ele>767.75</ele>
        <time>2017-02-15T07:34:34Z</time>
      </trkpt>
      <trkpt lat="46.62532" lon="5.90985">
        <ele>767.27</ele>
        <time>2017-02-15T07:34:40Z</time>
      </trkpt>
      <trkpt lat="46.62528" lon="5.90981">
        <ele>767.27</ele>
        <time>2017-02-15T07:34:45Z</time>
      </trkpt>
      <trkpt lat="46.62524" lon="5.90975">
        <ele>767.27</ele>
        <time>2017-02-15T07:34:49Z</time>
      </trkpt>
      <trkpt lat="46.62521" lon="5.90965">
        <ele>767.27</ele>
        <time>2017-02-15T07:34:53Z</time>
      </trkpt>
      <trkpt lat="46.62518" lon="5.90964">
        <ele>767.27</ele>
        <time>2017-02-15T07:34:55Z</time>
      </trkpt>
      <trkpt lat="46.62513" lon="5.90951">
        <ele>768.23</ele>
        <time>2017-02-15T07:35:02Z</time>
      </trkpt>
      <trkpt lat="46.62511" lon="5.90946">
        <ele>767.75</ele>
        <time>2017-02-15T07:35:04Z</time>
      </trkpt>
      <trkpt lat="46.62505" lon="5.9094">
        <ele>767.75</ele>
        <time>2017-02-15T07:35:10Z</time>
      </trkpt>
      <trkpt lat="46.62502" lon="5.90933">
        <ele>767.75</ele>
        <time>2017-02-15T07:35:14Z</time>
      </trkpt>
      <trkpt lat="46.62495" lon="5.90921">
        <ele>767.75</ele>
        <time>2017-02-15T07:35:21Z</time>
      </trkpt>
      <trkpt lat="46.62493" lon="5.9092">
        <ele>768.23</ele>
        <time>2017-02-15T07:35:23Z</time>
      </trkpt>
      <trkpt lat="46.62488" lon="5.90917">
        <ele>767.75</ele>
        <time>2017-02-15T07:35:27Z</time>
      </trkpt>
      <trkpt lat="46.62484" lon="5.90911">
        <ele>767.75</ele>
        <time>2017-02-15T07:35:30Z</time>
      </trkpt>
      <trkpt lat="46.62479" lon="5.90904">
        <ele>767.75</ele>
        <time>2017-02-15T07:35:35Z</time>
      </trkpt>
      <trkpt lat="46.62473" lon="5.90902">
        <ele>767.75</ele>
        <time>2017-02-15T07:35:40Z</time>
      </trkpt>
      <trkpt lat="46.62468" lon="5.90894">
        <ele>768.23</ele>
        <time>2017-02-15T07:35:46Z</time>
      </trkpt>
      <trkpt lat="46.62465" lon="5.90892">
        <ele>768.23</ele>
        <time>2017-02-15T07:35:48Z</time>
      </trkpt>
      <trkpt lat="46.62462" lon="5.90892">
        <ele>767.75</ele>
        <time>2017-02-15T07:35:50Z</time>
      </trkpt>
      <trkpt lat="46.62447" lon="5.9088">
        <ele>768.23</ele>
        <time>2017-02-15T07:36:01Z</time>
      </trkpt>
      <trkpt lat="46.62438" lon="5.9087">
        <ele>768.23</ele>
        <time>2017-02-15T07:36:09Z</time>
      </trkpt>
      <trkpt lat="46.62431" lon="5.90865">
        <ele>767.75</ele>
        <time>2017-02-15T07:36:16Z</time>
      </trkpt>
      <trkpt lat="46.62426" lon="5.90859">
        <ele>767.75</ele>
        <time>2017-02-15T07:36:20Z</time>
      </trkpt>
      <trkpt lat="46.62415" lon="5.90846">
        <ele>768.23</ele>
        <time>2017-02-15T07:36:30Z</time>
      </trkpt>
      <trkpt lat="46.62408" lon="5.9084">
        <ele>768.23</ele>
        <time>2017-02-15T07:36:36Z</time>
      </trkpt>
      <trkpt lat="46.624" lon="5.90832">
        <ele>768.71</ele>
        <time>2017-02-15T07:36:43Z</time>
      </trkpt>
      <trkpt lat="46.62392" lon="5.90825">
        <ele>768.23</ele>
        <time>2017-02-15T07:36:50Z</time>
      </trkpt>
      <trkpt lat="46.62381" lon="5.90816">
        <ele>768.71</ele>
        <time>2017-02-15T07:37:00Z</time>
      </trkpt>
      <trkpt lat="46.62376" lon="5.90815">
        <ele>769.19</ele>
        <time>2017-02-15T07:37:05Z</time>
      </trkpt>
      <trkpt lat="46.62368" lon="5.90812">
        <ele>769.19</ele>
        <time>2017-02-15T07:37:11Z</time>
      </trkpt>
      <trkpt lat="46.62366" lon="5.90812">
        <ele>769.19</ele>
        <time>2017-02-15T07:37:13Z</time>
      </trkpt>
      <trkpt lat="46.62361" lon="5.90809">
        <ele>769.19</ele>
        <time>2017-02-15T07:37:17Z</time>
      </trkpt>
      <trkpt lat="46.62355" lon="5.90804">
        <ele>769.67</ele>
        <time>2017-02-15T07:37:21Z</time>
      </trkpt>
      <trkpt lat="46.62343" lon="5.90793">
        <ele>770.15</ele>
        <time>2017-02-15T07:37:32Z</time>
      </trkpt>
      <trkpt lat="46.6234" lon="5.90789">
        <ele>769.67</ele>
        <time>2017-02-15T07:37:42Z</time>
      </trkpt>
      <trkpt lat="46.62339" lon="5.90786">
        <ele>769.67</ele>
        <time>2017-02-15T07:37:51Z</time>
      </trkpt>
      <trkpt lat="46.62335" lon="5.90785">
        <ele>769.67</ele>
        <time>2017-02-15T07:37:55Z</time>
      </trkpt>
      <trkpt lat="46.62328" lon="5.90776">
        <ele>770.63</ele>
        <time>2017-02-15T07:38:00Z</time>
      </trkpt>
      <trkpt lat="46.62321" lon="5.90773">
        <ele>770.63</ele>
        <time>2017-02-15T07:38:08Z</time>
      </trkpt>
      <trkpt lat="46.62313" lon="5.90761">
        <ele>770.15</ele>
        <time>2017-02-15T07:38:16Z</time>
      </trkpt>
      <trkpt lat="46.62305" lon="5.90748">
        <ele>770.63</ele>
        <time>2017-02-15T07:38:24Z</time>
      </trkpt>
      <trkpt lat="46.62303" lon="5.90748">
        <ele>770.63</ele>
        <time>2017-02-15T07:38:27Z</time>
      </trkpt>
      <trkpt lat="46.62298" lon="5.90739">
        <ele>771.11</ele>
        <time>2017-02-15T07:38:32Z</time>
      </trkpt>
      <trkpt lat="46.62294" lon="5.90733">
        <ele>771.11</ele>
        <time>2017-02-15T07:38:36Z</time>
      </trkpt>
      <trkpt lat="46.62289" lon="5.90724">
        <ele>770.63</ele>
        <time>2017-02-15T07:38:41Z</time>
      </trkpt>
      <trkpt lat="46.62283" lon="5.90713">
        <ele>767.27</ele>
        <time>2017-02-15T07:38:47Z</time>
      </trkpt>
      <trkpt lat="46.62281" lon="5.90711">
        <ele>773.52</ele>
        <time>2017-02-15T07:38:48Z</time>
      </trkpt>
      <trkpt lat="46.6228" lon="5.9071">
        <ele>772.08</ele>
        <time>2017-02-15T07:38:49Z</time>
      </trkpt>
      <trkpt lat="46.62278" lon="5.90704">
        <ele>769.19</ele>
        <time>2017-02-15T07:38:52Z</time>
      </trkpt>
      <trkpt lat="46.62277" lon="5.90703">
        <ele>773.04</ele>
        <time>2017-02-15T07:38:53Z</time>
      </trkpt>
      <trkpt lat="46.62269" lon="5.90692">
        <ele>772.08</ele>
        <time>2017-02-15T07:39:01Z</time>
      </trkpt>
      <trkpt lat="46.62263" lon="5.90683">
        <ele>772.08</ele>
        <time>2017-02-15T07:39:08Z</time>
      </trkpt>
      <trkpt lat="46.62258" lon="5.90677">
        <ele>771.6</ele>
        <time>2017-02-15T07:39:13Z</time>
      </trkpt>
      <trkpt lat="46.62252" lon="5.9067">
        <ele>771.11</ele>
        <time>2017-02-15T07:39:19Z</time>
      </trkpt>
      <trkpt lat="46.62243" lon="5.90661">
        <ele>770.63</ele>
        <time>2017-02-15T07:39:26Z</time>
      </trkpt>
      <trkpt lat="46.62236" lon="5.90648">
        <ele>770.63</ele>
        <time>2017-02-15T07:39:33Z</time>
      </trkpt>
      <trkpt lat="46.6223" lon="5.90639">
        <ele>770.15</ele>
        <time>2017-02-15T07:39:39Z</time>
      </trkpt>
      <trkpt lat="46.62217" lon="5.90614">
        <ele>770.15</ele>
        <time>2017-02-15T07:39:54Z</time>
      </trkpt>
      <trkpt lat="46.62214" lon="5.90609">
        <ele>770.15</ele>
        <time>2017-02-15T07:39:57Z</time>
      </trkpt>
      <trkpt lat="46.6221" lon="5.90593">
        <ele>770.15</ele>
        <time>2017-02-15T07:40:05Z</time>
      </trkpt>
      <trkpt lat="46.62204" lon="5.90573">
        <ele>769.67</ele>
        <time>2017-02-15T07:40:14Z</time>
      </trkpt>
      <trkpt lat="46.622" lon="5.90572">
        <ele>769.67</ele>
        <time>2017-02-15T07:40:17Z</time>
      </trkpt>
      <trkpt lat="46.62191" lon="5.90565">
        <ele>770.15</ele>
        <time>2017-02-15T07:40:25Z</time>
      </trkpt>
      <trkpt lat="46.62188" lon="5.90557">
        <ele>769.67</ele>
        <time>2017-02-15T07:40:29Z</time>
      </trkpt>
      <trkpt lat="46.62183" lon="5.9055">
        <ele>769.67</ele>
        <time>2017-02-15T07:40:34Z</time>
      </trkpt>
      <trkpt lat="46.62175" lon="5.90537">
        <ele>769.67</ele>
        <time>2017-02-15T07:40:44Z</time>
      </trkpt>
      <trkpt lat="46.62172" lon="5.9053">
        <ele>769.67</ele>
        <time>2017-02-15T07:40:47Z</time>
      </trkpt>
      <trkpt lat="46.62169" lon="5.90522">
        <ele>769.67</ele>
        <time>2017-02-15T07:40:52Z</time>
      </trkpt>
      <trkpt lat="46.62161" lon="5.90501">
        <ele>770.15</ele>
        <time>2017-02-15T07:41:02Z</time>
      </trkpt>
      <trkpt lat="46.62152" lon="5.90486">
        <ele>770.15</ele>
        <time>2017-02-15T07:41:12Z</time>
      </trkpt>
      <trkpt lat="46.6215" lon="5.90483">
        <ele>770.63</ele>
        <time>2017-02-15T07:41:15Z</time>
      </trkpt>
      <trkpt lat="46.62148" lon="5.90476">
        <ele>770.63</ele>
        <time>2017-02-15T07:41:19Z</time>
      </trkpt>
      <trkpt lat="46.62146" lon="5.90474">
        <ele>770.63</ele>
        <time>2017-02-15T07:41:21Z</time>
      </trkpt>
      <trkpt lat="46.62139" lon="5.90453">
        <ele>771.11</ele>
        <time>2017-02-15T07:41:31Z</time>
      </trkpt>
      <trkpt lat="46.62137" lon="5.90448">
        <ele>771.11</ele>
        <time>2017-02-15T07:41:34Z</time>
      </trkpt>
      <trkpt lat="46.62127" lon="5.90431">
        <ele>772.08</ele>
        <time>2017-02-15T07:41:43Z</time>
      </trkpt>
      <trkpt lat="46.62121" lon="5.90424">
        <ele>773.04</ele>
        <time>2017-02-15T07:41:49Z</time>
      </trkpt>
      <trkpt lat="46.62113" lon="5.90416">
        <ele>773.52</ele>
        <time>2017-02-15T07:41:57Z</time>
      </trkpt>
      <trkpt lat="46.62111" lon="5.90414">
        <ele>774</ele>
        <time>2017-02-15T07:42:00Z</time>
      </trkpt>
      <trkpt lat="46.62097" lon="5.90404">
        <ele>775.44</ele>
        <time>2017-02-15T07:42:13Z</time>
      </trkpt>
      <trkpt lat="46.62092" lon="5.90398">
        <ele>775.92</ele>
        <time>2017-02-15T07:42:17Z</time>
      </trkpt>
      <trkpt lat="46.62089" lon="5.90396">
        <ele>776.4</ele>
        <time>2017-02-15T07:42:19Z</time>
      </trkpt>
      <trkpt lat="46.62086" lon="5.90397">
        <ele>776.4</ele>
        <time>2017-02-15T07:42:22Z</time>
      </trkpt>
      <trkpt lat="46.62077" lon="5.9039">
        <ele>777.36</ele>
        <time>2017-02-15T07:42:33Z</time>
      </trkpt>
      <trkpt lat="46.62068" lon="5.90379">
        <ele>778.32</ele>
        <time>2017-02-15T07:42:42Z</time>
      </trkpt>
      <trkpt lat="46.62065" lon="5.90374">
        <ele>779.29</ele>
        <time>2017-02-15T07:42:46Z</time>
      </trkpt>
      <trkpt lat="46.62062" lon="5.90364">
        <ele>779.29</ele>
        <time>2017-02-15T07:42:51Z</time>
      </trkpt>
      <trkpt lat="46.62059" lon="5.90353">
        <ele>780.25</ele>
        <time>2017-02-15T07:42:58Z</time>
      </trkpt>
      <trkpt lat="46.62053" lon="5.90344">
        <ele>780.73</ele>
        <time>2017-02-15T07:43:05Z</time>
      </trkpt>
      <trkpt lat="46.62049" lon="5.90335">
        <ele>781.21</ele>
        <time>2017-02-15T07:43:10Z</time>
      </trkpt>
      <trkpt lat="46.62043" lon="5.90323">
        <ele>782.17</ele>
        <time>2017-02-15T07:43:19Z</time>
      </trkpt>
      <trkpt lat="46.62035" lon="5.90303">
        <ele>783.13</ele>
        <time>2017-02-15T07:43:29Z</time>
      </trkpt>
      <trkpt lat="46.62031" lon="5.90293">
        <ele>783.61</ele>
        <time>2017-02-15T07:43:37Z</time>
      </trkpt>
      <trkpt lat="46.6203" lon="5.90292">
        <ele>784.09</ele>
        <time>2017-02-15T07:43:38Z</time>
      </trkpt>
      <trkpt lat="46.62026" lon="5.90287">
        <ele>785.05</ele>
        <time>2017-02-15T07:43:42Z</time>
      </trkpt>
      <trkpt lat="46.62019" lon="5.90285">
        <ele>785.53</ele>
        <time>2017-02-15T07:43:49Z</time>
      </trkpt>
      <trkpt lat="46.62009" lon="5.90275">
        <ele>786.02</ele>
        <time>2017-02-15T07:44:00Z</time>
      </trkpt>
      <trkpt lat="46.62007" lon="5.90272">
        <ele>786.02</ele>
        <time>2017-02-15T07:44:02Z</time>
      </trkpt>
      <trkpt lat="46.62" lon="5.90264">
        <ele>786.5</ele>
        <time>2017-02-15T07:44:08Z</time>
      </trkpt>
      <trkpt lat="46.61994" lon="5.90256">
        <ele>786.5</ele>
        <time>2017-02-15T07:44:15Z</time>
      </trkpt>
      <trkpt lat="46.61992" lon="5.90243">
        <ele>787.46</ele>
        <time>2017-02-15T07:44:26Z</time>
      </trkpt>
      <trkpt lat="46.61991" lon="5.90243">
        <ele>786.98</ele>
        <time>2017-02-15T07:44:27Z</time>
      </trkpt>
      <trkpt lat="46.61987" lon="5.90228">
        <ele>787.46</ele>
        <time>2017-02-15T07:44:36Z</time>
      </trkpt>
      <trkpt lat="46.61985" lon="5.90215">
        <ele>787.46</ele>
        <time>2017-02-15T07:44:40Z</time>
      </trkpt>
      <trkpt lat="46.61982" lon="5.90204">
        <ele>787.46</ele>
        <time>2017-02-15T07:44:45Z</time>
      </trkpt>
      <trkpt lat="46.6198" lon="5.90196">
        <ele>787.94</ele>
        <time>2017-02-15T07:44:50Z</time>
      </trkpt>
      <trkpt lat="46.61979" lon="5.90188">
        <ele>788.42</ele>
        <time>2017-02-15T07:44:55Z</time>
      </trkpt>
      <trkpt lat="46.61979" lon="5.90185">
        <ele>788.42</ele>
        <time>2017-02-15T07:44:57Z</time>
      </trkpt>
      <trkpt lat="46.61979" lon="5.90174">
        <ele>788.9</ele>
        <time>2017-02-15T07:45:01Z</time>
      </trkpt>
      <trkpt lat="46.61978" lon="5.90166">
        <ele>788.9</ele>
        <time>2017-02-15T07:45:08Z</time>
      </trkpt>
      <trkpt lat="46.61978" lon="5.90155">
        <ele>788.9</ele>
        <time>2017-02-15T07:45:12Z</time>
      </trkpt>
      <trkpt lat="46.61975" lon="5.90133">
        <ele>789.38</ele>
        <time>2017-02-15T07:45:23Z</time>
      </trkpt>
      <trkpt lat="46.61974" lon="5.9012">
        <ele>789.86</ele>
        <time>2017-02-15T07:45:31Z</time>
      </trkpt>
      <trkpt lat="46.61972" lon="5.90097">
        <ele>789.38</ele>
        <time>2017-02-15T07:45:38Z</time>
      </trkpt>
      <trkpt lat="46.61971" lon="5.90092">
        <ele>789.38</ele>
        <time>2017-02-15T07:45:40Z</time>
      </trkpt>
      <trkpt lat="46.61972" lon="5.90086">
        <ele>789.38</ele>
        <time>2017-02-15T07:45:43Z</time>
      </trkpt>
      <trkpt lat="46.6197" lon="5.9008">
        <ele>789.86</ele>
        <time>2017-02-15T07:45:46Z</time>
      </trkpt>
      <trkpt lat="46.61969" lon="5.90075">
        <ele>789.38</ele>
        <time>2017-02-15T07:45:48Z</time>
      </trkpt>
      <trkpt lat="46.61965" lon="5.90058">
        <ele>790.34</ele>
        <time>2017-02-15T07:46:01Z</time>
      </trkpt>
      <trkpt lat="46.61961" lon="5.90054">
        <ele>790.82</ele>
        <time>2017-02-15T07:46:05Z</time>
      </trkpt>
      <trkpt lat="46.61959" lon="5.90051">
        <ele>790.34</ele>
        <time>2017-02-15T07:46:07Z</time>
      </trkpt>
      <trkpt lat="46.61955" lon="5.90044">
        <ele>790.34</ele>
        <time>2017-02-15T07:46:14Z</time>
      </trkpt>
      <trkpt lat="46.61948" lon="5.90035">
        <ele>790.34</ele>
        <time>2017-02-15T07:46:21Z</time>
      </trkpt>
      <trkpt lat="46.61944" lon="5.90025">
        <ele>789.86</ele>
        <time>2017-02-15T07:46:25Z</time>
      </trkpt>
      <trkpt lat="46.61937" lon="5.90015">
        <ele>789.86</ele>
        <time>2017-02-15T07:46:34Z</time>
      </trkpt>
      <trkpt lat="46.61925" lon="5.89993">
        <ele>789.38</ele>
        <time>2017-02-15T07:46:44Z</time>
      </trkpt>
      <trkpt lat="46.61919" lon="5.89963">
        <ele>788.42</ele>
        <time>2017-02-15T07:46:57Z</time>
      </trkpt>
      <trkpt lat="46.61916" lon="5.89945">
        <ele>788.9</ele>
        <time>2017-02-15T07:47:08Z</time>
      </trkpt>
      <trkpt lat="46.61916" lon="5.89935">
        <ele>788.42</ele>
        <time>2017-02-15T07:47:18Z</time>
      </trkpt>
      <trkpt lat="46.61915" lon="5.89924">
        <ele>788.42</ele>
        <time>2017-02-15T07:47:27Z</time>
      </trkpt>
      <trkpt lat="46.6192" lon="5.89911">
        <ele>787.94</ele>
        <time>2017-02-15T07:47:35Z</time>
      </trkpt>
      <trkpt lat="46.61923" lon="5.89901">
        <ele>787.46</ele>
        <time>2017-02-15T07:47:39Z</time>
      </trkpt>
      <trkpt lat="46.61924" lon="5.89892">
        <ele>787.46</ele>
        <time>2017-02-15T07:47:43Z</time>
      </trkpt>
      <trkpt lat="46.61929" lon="5.89872">
        <ele>787.46</ele>
        <time>2017-02-15T07:47:51Z</time>
      </trkpt>
      <trkpt lat="46.61931" lon="5.89858">
        <ele>787.46</ele>
        <time>2017-02-15T07:48:06Z</time>
      </trkpt>
      <trkpt lat="46.61931" lon="5.89853">
        <ele>787.46</ele>
        <time>2017-02-15T07:48:14Z</time>
      </trkpt>
      <trkpt lat="46.61937" lon="5.89841">
        <ele>786.98</ele>
        <time>2017-02-15T07:48:23Z</time>
      </trkpt>
      <trkpt lat="46.61944" lon="5.89832">
        <ele>786.98</ele>
        <time>2017-02-15T07:48:33Z</time>
      </trkpt>
      <trkpt lat="46.61949" lon="5.89829">
        <ele>786.98</ele>
        <time>2017-02-15T07:48:36Z</time>
      </trkpt>
      <trkpt lat="46.61952" lon="5.89825">
        <ele>786.5</ele>
        <time>2017-02-15T07:48:38Z</time>
      </trkpt>
      <trkpt lat="46.61954" lon="5.8982">
        <ele>786.5</ele>
        <time>2017-02-15T07:48:41Z</time>
      </trkpt>
      <trkpt lat="46.61959" lon="5.89816">
        <ele>786.5</ele>
        <time>2017-02-15T07:48:56Z</time>
      </trkpt>
      <trkpt lat="46.61963" lon="5.89819">
        <ele>786.5</ele>
        <time>2017-02-15T07:49:15Z</time>
      </trkpt>
      <trkpt lat="46.61963" lon="5.89818">
        <ele>786.02</ele>
        <time>2017-02-15T07:49:18Z</time>
      </trkpt>
      <trkpt lat="46.61969" lon="5.89815">
        <ele>786.02</ele>
        <time>2017-02-15T07:49:22Z</time>
      </trkpt>
      <trkpt lat="46.61975" lon="5.8981">
        <ele>786.02</ele>
        <time>2017-02-15T07:49:27Z</time>
      </trkpt>
      <trkpt lat="46.61977" lon="5.89803">
        <ele>786.02</ele>
        <time>2017-02-15T07:49:30Z</time>
      </trkpt>
      <trkpt lat="46.61978" lon="5.898">
        <ele>786.02</ele>
        <time>2017-02-15T07:49:32Z</time>
      </trkpt>
      <trkpt lat="46.61984" lon="5.8979">
        <ele>785.05</ele>
        <time>2017-02-15T07:49:38Z</time>
      </trkpt>
      <trkpt lat="46.6199" lon="5.89773">
        <ele>784.09</ele>
        <time>2017-02-15T07:49:49Z</time>
      </trkpt>
      <trkpt lat="46.6199" lon="5.89761">
        <ele>783.61</ele>
        <time>2017-02-15T07:49:55Z</time>
      </trkpt>
      <trkpt lat="46.61986" lon="5.89746">
        <ele>783.13</ele>
        <time>2017-02-15T07:50:02Z</time>
      </trkpt>
      <trkpt lat="46.61986" lon="5.8974">
        <ele>783.13</ele>
        <time>2017-02-15T07:50:07Z</time>
      </trkpt>
      <trkpt lat="46.61984" lon="5.89726">
        <ele>782.65</ele>
        <time>2017-02-15T07:50:17Z</time>
      </trkpt>
      <trkpt lat="46.61982" lon="5.89721">
        <ele>782.65</ele>
        <time>2017-02-15T07:50:20Z</time>
      </trkpt>
      <trkpt lat="46.61976" lon="5.89702">
        <ele>782.17</ele>
        <time>2017-02-15T07:50:30Z</time>
      </trkpt>
      <trkpt lat="46.6197" lon="5.89689">
        <ele>782.17</ele>
        <time>2017-02-15T07:50:35Z</time>
      </trkpt>
      <trkpt lat="46.61965" lon="5.89678">
        <ele>782.17</ele>
        <time>2017-02-15T07:50:39Z</time>
      </trkpt>
      <trkpt lat="46.61955" lon="5.89662">
        <ele>781.69</ele>
        <time>2017-02-15T07:50:49Z</time>
      </trkpt>
      <trkpt lat="46.61954" lon="5.89657">
        <ele>781.69</ele>
        <time>2017-02-15T07:50:53Z</time>
      </trkpt>
      <trkpt lat="46.61953" lon="5.89648">
        <ele>781.69</ele>
        <time>2017-02-15T07:50:56Z</time>
      </trkpt>
      <trkpt lat="46.6195" lon="5.89645">
        <ele>781.21</ele>
        <time>2017-02-15T07:50:58Z</time>
      </trkpt>
      <trkpt lat="46.61948" lon="5.89641">
        <ele>781.21</ele>
        <time>2017-02-15T07:51:01Z</time>
      </trkpt>
      <trkpt lat="46.61943" lon="5.89636">
        <ele>781.21</ele>
        <time>2017-02-15T07:51:04Z</time>
      </trkpt>
      <trkpt lat="46.61935" lon="5.89628">
        <ele>779.29</ele>
        <time>2017-02-15T07:51:12Z</time>
      </trkpt>
      <trkpt lat="46.6193" lon="5.89612">
        <ele>777.84</ele>
        <time>2017-02-15T07:51:23Z</time>
      </trkpt>
      <trkpt lat="46.61929" lon="5.89608">
        <ele>778.32</ele>
        <time>2017-02-15T07:51:25Z</time>
      </trkpt>
      <trkpt lat="46.61925" lon="5.89591">
        <ele>776.4</ele>
        <time>2017-02-15T07:51:36Z</time>
      </trkpt>
      <trkpt lat="46.61922" lon="5.89576">
        <ele>775.92</ele>
        <time>2017-02-15T07:51:50Z</time>
      </trkpt>
      <trkpt lat="46.61922" lon="5.89573">
        <ele>775.92</ele>
        <time>2017-02-15T07:51:51Z</time>
      </trkpt>
      <trkpt lat="46.61919" lon="5.89533">
        <ele>774.96</ele>
        <time>2017-02-15T07:52:02Z</time>
      </trkpt>
      <trkpt lat="46.61918" lon="5.89524">
        <ele>774.96</ele>
        <time>2017-02-15T07:52:05Z</time>
      </trkpt>
      <trkpt lat="46.61912" lon="5.895">
        <ele>774.96</ele>
        <time>2017-02-15T07:52:15Z</time>
      </trkpt>
      <trkpt lat="46.61911" lon="5.89495">
        <ele>774.48</ele>
        <time>2017-02-15T07:52:18Z</time>
      </trkpt>
      <trkpt lat="46.61906" lon="5.89475">
        <ele>774.48</ele>
        <time>2017-02-15T07:52:27Z</time>
      </trkpt>
      <trkpt lat="46.61904" lon="5.8947">
        <ele>774.48</ele>
        <time>2017-02-15T07:52:30Z</time>
      </trkpt>
      <trkpt lat="46.61894" lon="5.8945">
        <ele>774.96</ele>
        <time>2017-02-15T07:52:42Z</time>
      </trkpt>
      <trkpt lat="46.61894" lon="5.89442">
        <ele>774.96</ele>
        <time>2017-02-15T07:53:04Z</time>
      </trkpt>
      <trkpt lat="46.61892" lon="5.89439">
        <ele>774.48</ele>
        <time>2017-02-15T07:53:30Z</time>
      </trkpt>
      <trkpt lat="46.61885" lon="5.8943">
        <ele>774</ele>
        <time>2017-02-15T07:53:36Z</time>
      </trkpt>
      <trkpt lat="46.61883" lon="5.8943">
        <ele>774</ele>
        <time>2017-02-15T07:53:38Z</time>
      </trkpt>
      <trkpt lat="46.61874" lon="5.8942">
        <ele>774</ele>
        <time>2017-02-15T07:53:49Z</time>
      </trkpt>
      <trkpt lat="46.61871" lon="5.89418">
        <ele>773.52</ele>
        <time>2017-02-15T07:53:52Z</time>
      </trkpt>
      <trkpt lat="46.61865" lon="5.89409">
        <ele>773.04</ele>
        <time>2017-02-15T07:53:59Z</time>
      </trkpt>
      <trkpt lat="46.61862" lon="5.89404">
        <ele>773.04</ele>
        <time>2017-02-15T07:54:02Z</time>
      </trkpt>
      <trkpt lat="46.61859" lon="5.894">
        <ele>773.52</ele>
        <time>2017-02-15T07:54:04Z</time>
      </trkpt>
      <trkpt lat="46.6185" lon="5.89385">
        <ele>773.04</ele>
        <time>2017-02-15T07:54:14Z</time>
      </trkpt>
      <trkpt lat="46.61849" lon="5.89383">
        <ele>773.52</ele>
        <time>2017-02-15T07:54:15Z</time>
      </trkpt>
      <trkpt lat="46.61844" lon="5.89373">
        <ele>773.04</ele>
        <time>2017-02-15T07:54:20Z</time>
      </trkpt>
      <trkpt lat="46.6184" lon="5.89365">
        <ele>772.56</ele>
        <time>2017-02-15T07:54:24Z</time>
      </trkpt>
      <trkpt lat="46.61838" lon="5.89361">
        <ele>772.56</ele>
        <time>2017-02-15T07:54:26Z</time>
      </trkpt>
      <trkpt lat="46.61831" lon="5.89347">
        <ele>772.08</ele>
        <time>2017-02-15T07:54:35Z</time>
      </trkpt>
      <trkpt lat="46.61828" lon="5.89342">
        <ele>771.6</ele>
        <time>2017-02-15T07:54:38Z</time>
      </trkpt>
      <trkpt lat="46.61825" lon="5.89337">
        <ele>771.6</ele>
        <time>2017-02-15T07:54:41Z</time>
      </trkpt>
      <trkpt lat="46.61822" lon="5.89329">
        <ele>771.6</ele>
        <time>2017-02-15T07:54:46Z</time>
      </trkpt>
      <trkpt lat="46.61815" lon="5.89322">
        <ele>771.11</ele>
        <time>2017-02-15T07:54:54Z</time>
      </trkpt>
      <trkpt lat="46.61809" lon="5.89306">
        <ele>770.15</ele>
        <time>2017-02-15T07:55:04Z</time>
      </trkpt>
      <trkpt lat="46.61796" lon="5.893">
        <ele>769.19</ele>
        <time>2017-02-15T07:55:13Z</time>
      </trkpt>
      <trkpt lat="46.61791" lon="5.89297">
        <ele>769.19</ele>
        <time>2017-02-15T07:55:19Z</time>
      </trkpt>
      <trkpt lat="46.61788" lon="5.89295">
        <ele>769.19</ele>
        <time>2017-02-15T07:55:21Z</time>
      </trkpt>
      <trkpt lat="46.61777" lon="5.8928">
        <ele>769.19</ele>
        <time>2017-02-15T07:55:30Z</time>
      </trkpt>
      <trkpt lat="46.61768" lon="5.89266">
        <ele>768.71</ele>
        <time>2017-02-15T07:55:37Z</time>
      </trkpt>
      <trkpt lat="46.61765" lon="5.8926">
        <ele>768.71</ele>
        <time>2017-02-15T07:55:39Z</time>
      </trkpt>
      <trkpt lat="46.61762" lon="5.89252">
        <ele>768.71</ele>
        <time>2017-02-15T07:55:42Z</time>
      </trkpt>
      <trkpt lat="46.61757" lon="5.89243">
        <ele>768.71</ele>
        <time>2017-02-15T07:55:48Z</time>
      </trkpt>
      <trkpt lat="46.61754" lon="5.89239">
        <ele>769.19</ele>
        <time>2017-02-15T07:55:51Z</time>
      </trkpt>
      <trkpt lat="46.61755" lon="5.89231">
        <ele>768.23</ele>
        <time>2017-02-15T07:55:56Z</time>
      </trkpt>
      <trkpt lat="46.61751" lon="5.89223">
        <ele>767.75</ele>
        <time>2017-02-15T07:56:02Z</time>
      </trkpt>
      <trkpt lat="46.61751" lon="5.89206">
        <ele>768.23</ele>
        <time>2017-02-15T07:56:14Z</time>
      </trkpt>
      <trkpt lat="46.61743" lon="5.89204">
        <ele>768.23</ele>
        <time>2017-02-15T07:56:23Z</time>
      </trkpt>
      <trkpt lat="46.61731" lon="5.89193">
        <ele>768.71</ele>
        <time>2017-02-15T07:56:36Z</time>
      </trkpt>
      <trkpt lat="46.61727" lon="5.89187">
        <ele>768.71</ele>
        <time>2017-02-15T07:56:42Z</time>
      </trkpt>
      <trkpt lat="46.61716" lon="5.89178">
        <ele>768.71</ele>
        <time>2017-02-15T07:56:55Z</time>
      </trkpt>
      <trkpt lat="46.61714" lon="5.89174">
        <ele>768.71</ele>
        <time>2017-02-15T07:56:58Z</time>
      </trkpt>
      <trkpt lat="46.61699" lon="5.89155">
        <ele>769.19</ele>
        <time>2017-02-15T07:57:11Z</time>
      </trkpt>
      <trkpt lat="46.61686" lon="5.89145">
        <ele>769.19</ele>
        <time>2017-02-15T07:57:21Z</time>
      </trkpt>
      <trkpt lat="46.61676" lon="5.89139">
        <ele>768.71</ele>
        <time>2017-02-15T07:57:28Z</time>
      </trkpt>
      <trkpt lat="46.61666" lon="5.89133">
        <ele>769.19</ele>
        <time>2017-02-15T07:57:37Z</time>
      </trkpt>
      <trkpt lat="46.6164" lon="5.8912">
        <ele>768.71</ele>
        <time>2017-02-15T07:57:50Z</time>
      </trkpt>
      <trkpt lat="46.61638" lon="5.89118">
        <ele>769.19</ele>
        <time>2017-02-15T07:57:52Z</time>
      </trkpt>
      <trkpt lat="46.61636" lon="5.89116">
        <ele>768.71</ele>
        <time>2017-02-15T07:57:54Z</time>
      </trkpt>
      <trkpt lat="46.61631" lon="5.89097">
        <ele>768.71</ele>
        <time>2017-02-15T07:58:05Z</time>
      </trkpt>
      <trkpt lat="46.61633" lon="5.89093">
        <ele>768.71</ele>
        <time>2017-02-15T07:58:08Z</time>
      </trkpt>
      <trkpt lat="46.61636" lon="5.89073">
        <ele>768.71</ele>
        <time>2017-02-15T07:58:22Z</time>
      </trkpt>
      <trkpt lat="46.6164" lon="5.89056">
        <ele>768.71</ele>
        <time>2017-02-15T07:58:33Z</time>
      </trkpt>
      <trkpt lat="46.61644" lon="5.89036">
        <ele>768.71</ele>
        <time>2017-02-15T07:58:44Z</time>
      </trkpt>
      <trkpt lat="46.61645" lon="5.89018">
        <ele>768.71</ele>
        <time>2017-02-15T07:58:53Z</time>
      </trkpt>
      <trkpt lat="46.61646" lon="5.89014">
        <ele>768.23</ele>
        <time>2017-02-15T07:58:55Z</time>
      </trkpt>
      <trkpt lat="46.61647" lon="5.88999">
        <ele>768.23</ele>
        <time>2017-02-15T07:59:00Z</time>
      </trkpt>
      <trkpt lat="46.61649" lon="5.8899">
        <ele>768.23</ele>
        <time>2017-02-15T07:59:04Z</time>
      </trkpt>
      <trkpt lat="46.61657" lon="5.88983">
        <ele>768.23</ele>
        <time>2017-02-15T07:59:13Z</time>
      </trkpt>
      <trkpt lat="46.61663" lon="5.88973">
        <ele>768.23</ele>
        <time>2017-02-15T07:59:23Z</time>
      </trkpt>
      <trkpt lat="46.61671" lon="5.88965">
        <ele>768.23</ele>
        <time>2017-02-15T07:59:35Z</time>
      </trkpt>
      <trkpt lat="46.61686" lon="5.88964">
        <ele>768.71</ele>
        <time>2017-02-15T07:59:46Z</time>
      </trkpt>
      <trkpt lat="46.61703" lon="5.88968">
        <ele>768.71</ele>
        <time>2017-02-15T07:59:55Z</time>
      </trkpt>
      <trkpt lat="46.6172" lon="5.88974">
        <ele>768.71</ele>
        <time>2017-02-15T08:00:06Z</time>
      </trkpt>
      <trkpt lat="46.61732" lon="5.88979">
        <ele>768.23</ele>
        <time>2017-02-15T08:00:17Z</time>
      </trkpt>
      <trkpt lat="46.61752" lon="5.88992">
        <ele>768.23</ele>
        <time>2017-02-15T08:00:27Z</time>
      </trkpt>
      <trkpt lat="46.61754" lon="5.88994">
        <ele>768.71</ele>
        <time>2017-02-15T08:00:28Z</time>
      </trkpt>
      <trkpt lat="46.61761" lon="5.89">
        <ele>768.71</ele>
        <time>2017-02-15T08:00:43Z</time>
      </trkpt>
      <trkpt lat="46.61769" lon="5.88998">
        <ele>768.71</ele>
        <time>2017-02-15T08:00:51Z</time>
      </trkpt>
      <trkpt lat="46.61774" lon="5.88995">
        <ele>768.71</ele>
        <time>2017-02-15T08:00:55Z</time>
      </trkpt>
      <trkpt lat="46.61783" lon="5.88988">
        <ele>768.71</ele>
        <time>2017-02-15T08:01:01Z</time>
      </trkpt>
      <trkpt lat="46.61792" lon="5.88979">
        <ele>768.71</ele>
        <time>2017-02-15T08:01:09Z</time>
      </trkpt>
      <trkpt lat="46.618" lon="5.88967">
        <ele>768.23</ele>
        <time>2017-02-15T08:01:16Z</time>
      </trkpt>
      <trkpt lat="46.61805" lon="5.88963">
        <ele>768.23</ele>
        <time>2017-02-15T08:01:20Z</time>
      </trkpt>
      <trkpt lat="46.61807" lon="5.8896">
        <ele>768.71</ele>
        <time>2017-02-15T08:01:22Z</time>
      </trkpt>
      <trkpt lat="46.61812" lon="5.88955">
        <ele>768.23</ele>
        <time>2017-02-15T08:01:26Z</time>
      </trkpt>
      <trkpt lat="46.61821" lon="5.88938">
        <ele>768.71</ele>
        <time>2017-02-15T08:01:37Z</time>
      </trkpt>
      <trkpt lat="46.61824" lon="5.88932">
        <ele>768.71</ele>
        <time>2017-02-15T08:01:41Z</time>
      </trkpt>
      <trkpt lat="46.61825" lon="5.88927">
        <ele>768.71</ele>
        <time>2017-02-15T08:01:44Z</time>
      </trkpt>
      <trkpt lat="46.61826" lon="5.88914">
        <ele>768.71</ele>
        <time>2017-02-15T08:01:54Z</time>
      </trkpt>
      <trkpt lat="46.61827" lon="5.88904">
        <ele>768.23</ele>
        <time>2017-02-15T08:01:58Z</time>
      </trkpt>
      <trkpt lat="46.61828" lon="5.88892">
        <ele>768.23</ele>
        <time>2017-02-15T08:02:04Z</time>
      </trkpt>
      <trkpt lat="46.6183" lon="5.88867">
        <ele>768.71</ele>
        <time>2017-02-15T08:02:15Z</time>
      </trkpt>
      <trkpt lat="46.6183" lon="5.8886">
        <ele>768.71</ele>
        <time>2017-02-15T08:02:19Z</time>
      </trkpt>
      <trkpt lat="46.61832" lon="5.88854">
        <ele>768.71</ele>
        <time>2017-02-15T08:02:22Z</time>
      </trkpt>
      <trkpt lat="46.61833" lon="5.88843">
        <ele>768.23</ele>
        <time>2017-02-15T08:02:27Z</time>
      </trkpt>
      <trkpt lat="46.61833" lon="5.88837">
        <ele>768.71</ele>
        <time>2017-02-15T08:02:29Z</time>
      </trkpt>
      <trkpt lat="46.6184" lon="5.88819">
        <ele>768.71</ele>
        <time>2017-02-15T08:02:39Z</time>
      </trkpt>
      <trkpt lat="46.61844" lon="5.88792">
        <ele>768.71</ele>
        <time>2017-02-15T08:02:53Z</time>
      </trkpt>
      <trkpt lat="46.61838" lon="5.88773">
        <ele>769.19</ele>
        <time>2017-02-15T08:03:03Z</time>
      </trkpt>
      <trkpt lat="46.61839" lon="5.88768">
        <ele>770.15</ele>
        <time>2017-02-15T08:03:16Z</time>
      </trkpt>
      <trkpt lat="46.61838" lon="5.88764">
        <ele>770.63</ele>
        <time>2017-02-15T08:03:28Z</time>
      </trkpt>
      <trkpt lat="46.61837" lon="5.88757">
        <ele>770.63</ele>
        <time>2017-02-15T08:03:34Z</time>
      </trkpt>
      <trkpt lat="46.61837" lon="5.88753">
        <ele>770.63</ele>
        <time>2017-02-15T08:03:37Z</time>
      </trkpt>
      <trkpt lat="46.61835" lon="5.8874">
        <ele>771.6</ele>
        <time>2017-02-15T08:03:42Z</time>
      </trkpt>
      <trkpt lat="46.61838" lon="5.88732">
        <ele>772.56</ele>
        <time>2017-02-15T08:03:51Z</time>
      </trkpt>
      <trkpt lat="46.61837" lon="5.88717">
        <ele>773.52</ele>
        <time>2017-02-15T08:03:57Z</time>
      </trkpt>
      <trkpt lat="46.6183" lon="5.88695">
        <ele>774.48</ele>
        <time>2017-02-15T08:04:08Z</time>
      </trkpt>
      <trkpt lat="46.6183" lon="5.88691">
        <ele>774.48</ele>
        <time>2017-02-15T08:04:11Z</time>
      </trkpt>
      <trkpt lat="46.61827" lon="5.88669">
        <ele>775.44</ele>
        <time>2017-02-15T08:04:23Z</time>
      </trkpt>
      <trkpt lat="46.61823" lon="5.88652">
        <ele>776.4</ele>
        <time>2017-02-15T08:04:32Z</time>
      </trkpt>
      <trkpt lat="46.61819" lon="5.88643">
        <ele>776.88</ele>
        <time>2017-02-15T08:04:38Z</time>
      </trkpt>
      <trkpt lat="46.61809" lon="5.88624">
        <ele>777.36</ele>
        <time>2017-02-15T08:04:50Z</time>
      </trkpt>
      <trkpt lat="46.61808" lon="5.88611">
        <ele>778.32</ele>
        <time>2017-02-15T08:04:58Z</time>
      </trkpt>
      <trkpt lat="46.61809" lon="5.8859">
        <ele>778.32</ele>
        <time>2017-02-15T08:05:11Z</time>
      </trkpt>
      <trkpt lat="46.61813" lon="5.88569">
        <ele>779.77</ele>
        <time>2017-02-15T08:05:20Z</time>
      </trkpt>
      <trkpt lat="46.61813" lon="5.88559">
        <ele>779.29</ele>
        <time>2017-02-15T08:05:26Z</time>
      </trkpt>
      <trkpt lat="46.61812" lon="5.88551">
        <ele>779.77</ele>
        <time>2017-02-15T08:05:31Z</time>
      </trkpt>
      <trkpt lat="46.61809" lon="5.8854">
        <ele>780.25</ele>
        <time>2017-02-15T08:05:38Z</time>
      </trkpt>
      <trkpt lat="46.61809" lon="5.88525">
        <ele>779.77</ele>
        <time>2017-02-15T08:05:47Z</time>
      </trkpt>
      <trkpt lat="46.61811" lon="5.88507">
        <ele>780.25</ele>
        <time>2017-02-15T08:05:56Z</time>
      </trkpt>
      <trkpt lat="46.6181" lon="5.88497">
        <ele>780.73</ele>
        <time>2017-02-15T08:06:02Z</time>
      </trkpt>
      <trkpt lat="46.6181" lon="5.88491">
        <ele>780.25</ele>
        <time>2017-02-15T08:06:06Z</time>
      </trkpt>
      <trkpt lat="46.61812" lon="5.88476">
        <ele>781.21</ele>
        <time>2017-02-15T08:06:15Z</time>
      </trkpt>
      <trkpt lat="46.61813" lon="5.88458">
        <ele>781.21</ele>
        <time>2017-02-15T08:06:25Z</time>
      </trkpt>
      <trkpt lat="46.61813" lon="5.88442">
        <ele>781.69</ele>
        <time>2017-02-15T08:06:33Z</time>
      </trkpt>
      <trkpt lat="46.61816" lon="5.88421">
        <ele>783.13</ele>
        <time>2017-02-15T08:06:43Z</time>
      </trkpt>
      <trkpt lat="46.61816" lon="5.88413">
        <ele>784.09</ele>
        <time>2017-02-15T08:06:48Z</time>
      </trkpt>
      <trkpt lat="46.61816" lon="5.88395">
        <ele>785.53</ele>
        <time>2017-02-15T08:06:59Z</time>
      </trkpt>
      <trkpt lat="46.61816" lon="5.88393">
        <ele>785.53</ele>
        <time>2017-02-15T08:07:00Z</time>
      </trkpt>
      <trkpt lat="46.61818" lon="5.88386">
        <ele>784.57</ele>
        <time>2017-02-15T08:07:09Z</time>
      </trkpt>
      <trkpt lat="46.61822" lon="5.8838">
        <ele>783.61</ele>
        <time>2017-02-15T08:07:21Z</time>
      </trkpt>
      <trkpt lat="46.61831" lon="5.88379">
        <ele>782.17</ele>
        <time>2017-02-15T08:07:29Z</time>
      </trkpt>
      <trkpt lat="46.61836" lon="5.88377">
        <ele>780.25</ele>
        <time>2017-02-15T08:07:36Z</time>
      </trkpt>
      <trkpt lat="46.61845" lon="5.88369">
        <ele>779.29</ele>
        <time>2017-02-15T08:07:47Z</time>
      </trkpt>
      <trkpt lat="46.61856" lon="5.88352">
        <ele>778.32</ele>
        <time>2017-02-15T08:07:57Z</time>
      </trkpt>
      <trkpt lat="46.6186" lon="5.88345">
        <ele>776.88</ele>
        <time>2017-02-15T08:08:00Z</time>
      </trkpt>
      <trkpt lat="46.61861" lon="5.88342">
        <ele>777.36</ele>
        <time>2017-02-15T08:08:13Z</time>
      </trkpt>
      <trkpt lat="46.6187" lon="5.88328">
        <ele>774.96</ele>
        <time>2017-02-15T08:08:28Z</time>
      </trkpt>
      <trkpt lat="46.61878" lon="5.88314">
        <ele>773.52</ele>
        <time>2017-02-15T08:08:39Z</time>
      </trkpt>
      <trkpt lat="46.61882" lon="5.88309">
        <ele>772.56</ele>
        <time>2017-02-15T08:08:45Z</time>
      </trkpt>
      <trkpt lat="46.6189" lon="5.88286">
        <ele>771.6</ele>
        <time>2017-02-15T08:08:57Z</time>
      </trkpt>
      <trkpt lat="46.61892" lon="5.88275">
        <ele>770.15</ele>
        <time>2017-02-15T08:09:02Z</time>
      </trkpt>
      <trkpt lat="46.61895" lon="5.88255">
        <ele>769.67</ele>
        <time>2017-02-15T08:09:12Z</time>
      </trkpt>
      <trkpt lat="46.61895" lon="5.88253">
        <ele>769.19</ele>
        <time>2017-02-15T08:09:13Z</time>
      </trkpt>
      <trkpt lat="46.61898" lon="5.88245">
        <ele>769.67</ele>
        <time>2017-02-15T08:09:19Z</time>
      </trkpt>
      <trkpt lat="46.61904" lon="5.88224">
        <ele>769.19</ele>
        <time>2017-02-15T08:09:28Z</time>
      </trkpt>
      <trkpt lat="46.61905" lon="5.88222">
        <ele>769.19</ele>
        <time>2017-02-15T08:09:29Z</time>
      </trkpt>
      <trkpt lat="46.61906" lon="5.88213">
        <ele>769.67</ele>
        <time>2017-02-15T08:09:33Z</time>
      </trkpt>
      <trkpt lat="46.61906" lon="5.88199">
        <ele>768.71</ele>
        <time>2017-02-15T08:09:39Z</time>
      </trkpt>
      <trkpt lat="46.61906" lon="5.88192">
        <ele>768.71</ele>
        <time>2017-02-15T08:09:42Z</time>
      </trkpt>
      <trkpt lat="46.61904" lon="5.88172">
        <ele>770.63</ele>
        <time>2017-02-15T08:09:54Z</time>
      </trkpt>
      <trkpt lat="46.619" lon="5.88162">
        <ele>771.11</ele>
        <time>2017-02-15T08:10:01Z</time>
      </trkpt>
      <trkpt lat="46.61886" lon="5.88149">
        <ele>771.6</ele>
        <time>2017-02-15T08:10:14Z</time>
      </trkpt>
      <trkpt lat="46.61887" lon="5.88151">
        <ele>771.6</ele>
        <time>2017-02-15T08:10:31Z</time>
      </trkpt>
      <trkpt lat="46.61881" lon="5.88147">
        <ele>771.11</ele>
        <time>2017-02-15T08:10:41Z</time>
      </trkpt>
      <trkpt lat="46.61868" lon="5.88131">
        <ele>771.6</ele>
        <time>2017-02-15T08:10:53Z</time>
      </trkpt>
      <trkpt lat="46.61861" lon="5.88116">
        <ele>772.56</ele>
        <time>2017-02-15T08:11:03Z</time>
      </trkpt>
      <trkpt lat="46.61861" lon="5.88114">
        <ele>773.04</ele>
        <time>2017-02-15T08:11:05Z</time>
      </trkpt>
      <trkpt lat="46.61866" lon="5.88109">
        <ele>773.52</ele>
        <time>2017-02-15T08:11:17Z</time>
      </trkpt>
      <trkpt lat="46.61867" lon="5.88109">
        <ele>773.52</ele>
        <time>2017-02-15T08:11:29Z</time>
      </trkpt>
      <trkpt lat="46.61858" lon="5.88115">
        <ele>772.56</ele>
        <time>2017-02-15T08:11:40Z</time>
      </trkpt>
      <trkpt lat="46.61857" lon="5.88115">
        <ele>773.04</ele>
        <time>2017-02-15T08:11:52Z</time>
      </trkpt>
      <trkpt lat="46.61867" lon="5.88111">
        <ele>774</ele>
        <time>2017-02-15T08:12:05Z</time>
      </trkpt>
      <trkpt lat="46.61868" lon="5.88111">
        <ele>774</ele>
        <time>2017-02-15T08:12:06Z</time>
      </trkpt>
      <trkpt lat="46.61885" lon="5.88114">
        <ele>774.96</ele>
        <time>2017-02-15T08:12:18Z</time>
      </trkpt>
      <trkpt lat="46.619" lon="5.88118">
        <ele>774.48</ele>
        <time>2017-02-15T08:12:28Z</time>
      </trkpt>
      <trkpt lat="46.61912" lon="5.88119">
        <ele>774.96</ele>
        <time>2017-02-15T08:12:39Z</time>
      </trkpt>
      <trkpt lat="46.61916" lon="5.88118">
        <ele>774.96</ele>
        <time>2017-02-15T08:12:41Z</time>
      </trkpt>
      <trkpt lat="46.61924" lon="5.88115">
        <ele>774.96</ele>
        <time>2017-02-15T08:12:47Z</time>
      </trkpt>
      <trkpt lat="46.61944" lon="5.88117">
        <ele>776.4</ele>
        <time>2017-02-15T08:13:00Z</time>
      </trkpt>
      <trkpt lat="46.61946" lon="5.88118">
        <ele>776.4</ele>
        <time>2017-02-15T08:13:01Z</time>
      </trkpt>
      <trkpt lat="46.61962" lon="5.88121">
        <ele>777.36</ele>
        <time>2017-02-15T08:13:14Z</time>
      </trkpt>
      <trkpt lat="46.61971" lon="5.88123">
        <ele>777.36</ele>
        <time>2017-02-15T08:13:29Z</time>
      </trkpt>
      <trkpt lat="46.61972" lon="5.88124">
        <ele>777.36</ele>
        <time>2017-02-15T08:13:30Z</time>
      </trkpt>
      <trkpt lat="46.61978" lon="5.88127">
        <ele>778.32</ele>
        <time>2017-02-15T08:13:35Z</time>
      </trkpt>
      <trkpt lat="46.61992" lon="5.88136">
        <ele>778.81</ele>
        <time>2017-02-15T08:13:47Z</time>
      </trkpt>
      <trkpt lat="46.62008" lon="5.88143">
        <ele>780.25</ele>
        <time>2017-02-15T08:13:59Z</time>
      </trkpt>
      <trkpt lat="46.62019" lon="5.88144">
        <ele>780.25</ele>
        <time>2017-02-15T08:14:07Z</time>
      </trkpt>
      <trkpt lat="46.62033" lon="5.88147">
        <ele>781.21</ele>
        <time>2017-02-15T08:14:21Z</time>
      </trkpt>
      <trkpt lat="46.62037" lon="5.88149">
        <ele>781.69</ele>
        <time>2017-02-15T08:14:25Z</time>
      </trkpt>
      <trkpt lat="46.62054" lon="5.88159">
        <ele>782.65</ele>
        <time>2017-02-15T08:14:37Z</time>
      </trkpt>
      <trkpt lat="46.62065" lon="5.88159">
        <ele>782.65</ele>
        <time>2017-02-15T08:14:45Z</time>
      </trkpt>
      <trkpt lat="46.62077" lon="5.88157">
        <ele>783.61</ele>
        <time>2017-02-15T08:14:56Z</time>
      </trkpt>
      <trkpt lat="46.62082" lon="5.88156">
        <ele>783.61</ele>
        <time>2017-02-15T08:15:00Z</time>
      </trkpt>
      <trkpt lat="46.62098" lon="5.88159">
        <ele>785.05</ele>
        <time>2017-02-15T08:15:11Z</time>
      </trkpt>
      <trkpt lat="46.62107" lon="5.8816">
        <ele>786.02</ele>
        <time>2017-02-15T08:15:19Z</time>
      </trkpt>
      <trkpt lat="46.62119" lon="5.88167">
        <ele>786.98</ele>
        <time>2017-02-15T08:15:29Z</time>
      </trkpt>
      <trkpt lat="46.6213" lon="5.88172">
        <ele>787.94</ele>
        <time>2017-02-15T08:15:41Z</time>
      </trkpt>
      <trkpt lat="46.62139" lon="5.8817">
        <ele>788.42</ele>
        <time>2017-02-15T08:15:47Z</time>
      </trkpt>
      <trkpt lat="46.62145" lon="5.8817">
        <ele>788.42</ele>
        <time>2017-02-15T08:15:51Z</time>
      </trkpt>
      <trkpt lat="46.6215" lon="5.88167">
        <ele>789.38</ele>
        <time>2017-02-15T08:15:57Z</time>
      </trkpt>
      <trkpt lat="46.62162" lon="5.88164">
        <ele>789.86</ele>
        <time>2017-02-15T08:16:07Z</time>
      </trkpt>
      <trkpt lat="46.62176" lon="5.88163">
        <ele>790.34</ele>
        <time>2017-02-15T08:16:17Z</time>
      </trkpt>
      <trkpt lat="46.62182" lon="5.88161">
        <ele>790.82</ele>
        <time>2017-02-15T08:16:22Z</time>
      </trkpt>
      <trkpt lat="46.62188" lon="5.88162">
        <ele>790.82</ele>
        <time>2017-02-15T08:16:26Z</time>
      </trkpt>
      <trkpt lat="46.622" lon="5.88156">
        <ele>792.26</ele>
        <time>2017-02-15T08:16:37Z</time>
      </trkpt>
      <trkpt lat="46.62202" lon="5.88156">
        <ele>792.74</ele>
        <time>2017-02-15T08:16:38Z</time>
      </trkpt>
      <trkpt lat="46.62212" lon="5.88157">
        <ele>792.74</ele>
        <time>2017-02-15T08:16:45Z</time>
      </trkpt>
      <trkpt lat="46.62216" lon="5.88157">
        <ele>793.22</ele>
        <time>2017-02-15T08:16:49Z</time>
      </trkpt>
      <trkpt lat="46.62219" lon="5.88157">
        <ele>793.22</ele>
        <time>2017-02-15T08:16:51Z</time>
      </trkpt>
      <trkpt lat="46.62222" lon="5.88156">
        <ele>793.71</ele>
        <time>2017-02-15T08:16:53Z</time>
      </trkpt>
      <trkpt lat="46.62226" lon="5.88154">
        <ele>794.19</ele>
        <time>2017-02-15T08:16:56Z</time>
      </trkpt>
      <trkpt lat="46.62242" lon="5.88154">
        <ele>795.15</ele>
        <time>2017-02-15T08:17:07Z</time>
      </trkpt>
      <trkpt lat="46.62255" lon="5.88154">
        <ele>796.11</ele>
        <time>2017-02-15T08:17:18Z</time>
      </trkpt>
      <trkpt lat="46.62267" lon="5.8815">
        <ele>796.59</ele>
        <time>2017-02-15T08:17:27Z</time>
      </trkpt>
      <trkpt lat="46.6228" lon="5.88142">
        <ele>798.03</ele>
        <time>2017-02-15T08:17:40Z</time>
      </trkpt>
      <trkpt lat="46.62288" lon="5.8814">
        <ele>798.99</ele>
        <time>2017-02-15T08:17:47Z</time>
      </trkpt>
      <trkpt lat="46.62299" lon="5.88144">
        <ele>799.95</ele>
        <time>2017-02-15T08:17:55Z</time>
      </trkpt>
      <trkpt lat="46.62308" lon="5.88148">
        <ele>799.95</ele>
        <time>2017-02-15T08:18:01Z</time>
      </trkpt>
      <trkpt lat="46.62318" lon="5.88151">
        <ele>800.44</ele>
        <time>2017-02-15T08:18:07Z</time>
      </trkpt>
      <trkpt lat="46.6233" lon="5.8815">
        <ele>800.44</ele>
        <time>2017-02-15T08:18:16Z</time>
      </trkpt>
      <trkpt lat="46.62343" lon="5.88157">
        <ele>800.92</ele>
        <time>2017-02-15T08:18:27Z</time>
      </trkpt>
      <trkpt lat="46.62357" lon="5.8816">
        <ele>801.4</ele>
        <time>2017-02-15T08:18:37Z</time>
      </trkpt>
      <trkpt lat="46.6237" lon="5.88166">
        <ele>801.88</ele>
        <time>2017-02-15T08:18:48Z</time>
      </trkpt>
      <trkpt lat="46.62376" lon="5.88169">
        <ele>801.88</ele>
        <time>2017-02-15T08:18:54Z</time>
      </trkpt>
      <trkpt lat="46.62384" lon="5.88173">
        <ele>801.88</ele>
        <time>2017-02-15T08:18:59Z</time>
      </trkpt>
      <trkpt lat="46.62393" lon="5.88179">
        <ele>801.4</ele>
        <time>2017-02-15T08:19:05Z</time>
      </trkpt>
      <trkpt lat="46.62401" lon="5.88189">
        <ele>800.92</ele>
        <time>2017-02-15T08:19:14Z</time>
      </trkpt>
      <trkpt lat="46.62407" lon="5.88197">
        <ele>800.92</ele>
        <time>2017-02-15T08:19:26Z</time>
      </trkpt>
      <trkpt lat="46.62413" lon="5.88205">
        <ele>800.92</ele>
        <time>2017-02-15T08:19:33Z</time>
      </trkpt>
      <trkpt lat="46.6242" lon="5.88211">
        <ele>800.44</ele>
        <time>2017-02-15T08:19:37Z</time>
      </trkpt>
      <trkpt lat="46.62434" lon="5.88231">
        <ele>800.44</ele>
        <time>2017-02-15T08:19:49Z</time>
      </trkpt>
      <trkpt lat="46.62449" lon="5.88248">
        <ele>799.47</ele>
        <time>2017-02-15T08:20:00Z</time>
      </trkpt>
      <trkpt lat="46.6245" lon="5.8825">
        <ele>799.47</ele>
        <time>2017-02-15T08:20:01Z</time>
      </trkpt>
      <trkpt lat="46.62463" lon="5.88264">
        <ele>798.51</ele>
        <time>2017-02-15T08:20:12Z</time>
      </trkpt>
      <trkpt lat="46.62473" lon="5.88277">
        <ele>797.55</ele>
        <time>2017-02-15T08:20:25Z</time>
      </trkpt>
      <trkpt lat="46.62485" lon="5.88295">
        <ele>797.07</ele>
        <time>2017-02-15T08:20:38Z</time>
      </trkpt>
      <trkpt lat="46.62499" lon="5.88308">
        <ele>796.11</ele>
        <time>2017-02-15T08:20:48Z</time>
      </trkpt>
      <trkpt lat="46.62519" lon="5.88325">
        <ele>795.63</ele>
        <time>2017-02-15T08:21:01Z</time>
      </trkpt>
      <trkpt lat="46.62521" lon="5.88326">
        <ele>796.11</ele>
        <time>2017-02-15T08:21:03Z</time>
      </trkpt>
      <trkpt lat="46.62527" lon="5.88337">
        <ele>795.63</ele>
        <time>2017-02-15T08:21:09Z</time>
      </trkpt>
      <trkpt lat="46.62534" lon="5.88348">
        <ele>795.15</ele>
        <time>2017-02-15T08:21:16Z</time>
      </trkpt>
      <trkpt lat="46.6255" lon="5.88353">
        <ele>793.71</ele>
        <time>2017-02-15T08:21:28Z</time>
      </trkpt>
      <trkpt lat="46.62553" lon="5.88357">
        <ele>793.22</ele>
        <time>2017-02-15T08:21:32Z</time>
      </trkpt>
      <trkpt lat="46.62565" lon="5.88368">
        <ele>793.71</ele>
        <time>2017-02-15T08:21:43Z</time>
      </trkpt>
      <trkpt lat="46.62575" lon="5.88382">
        <ele>794.19</ele>
        <time>2017-02-15T08:21:54Z</time>
      </trkpt>
      <trkpt lat="46.62578" lon="5.88387">
        <ele>794.19</ele>
        <time>2017-02-15T08:21:57Z</time>
      </trkpt>
      <trkpt lat="46.62582" lon="5.88389">
        <ele>794.19</ele>
        <time>2017-02-15T08:21:59Z</time>
      </trkpt>
      <trkpt lat="46.62587" lon="5.88394">
        <ele>794.19</ele>
        <time>2017-02-15T08:22:03Z</time>
      </trkpt>
      <trkpt lat="46.62593" lon="5.88408">
        <ele>793.71</ele>
        <time>2017-02-15T08:22:11Z</time>
      </trkpt>
      <trkpt lat="46.62604" lon="5.88423">
        <ele>793.71</ele>
        <time>2017-02-15T08:22:23Z</time>
      </trkpt>
      <trkpt lat="46.62615" lon="5.88431">
        <ele>793.22</ele>
        <time>2017-02-15T08:22:33Z</time>
      </trkpt>
      <trkpt lat="46.62623" lon="5.88437">
        <ele>793.22</ele>
        <time>2017-02-15T08:22:39Z</time>
      </trkpt>
      <trkpt lat="46.62633" lon="5.88442">
        <ele>776.88</ele>
        <time>2017-02-15T08:22:49Z</time>
      </trkpt>
      <trkpt lat="46.62633" lon="5.88442">
        <ele>804.76</ele>
        <time>2017-02-15T08:22:50Z</time>
      </trkpt>
      <trkpt lat="46.62635" lon="5.88445">
        <ele>794.67</ele>
        <time>2017-02-15T08:22:51Z</time>
      </trkpt>
      <trkpt lat="46.62636" lon="5.88447">
        <ele>793.71</ele>
        <time>2017-02-15T08:22:53Z</time>
      </trkpt>
      <trkpt lat="46.62639" lon="5.88452">
        <ele>793.22</ele>
        <time>2017-02-15T08:22:56Z</time>
      </trkpt>
      <trkpt lat="46.62646" lon="5.88458">
        <ele>792.74</ele>
        <time>2017-02-15T08:23:01Z</time>
      </trkpt>
      <trkpt lat="46.62659" lon="5.88475">
        <ele>793.71</ele>
        <time>2017-02-15T08:23:14Z</time>
      </trkpt>
      <trkpt lat="46.62673" lon="5.88485">
        <ele>793.22</ele>
        <time>2017-02-15T08:23:26Z</time>
      </trkpt>
      <trkpt lat="46.62682" lon="5.885">
        <ele>792.74</ele>
        <time>2017-02-15T08:23:36Z</time>
      </trkpt>
      <trkpt lat="46.62691" lon="5.88506">
        <ele>793.22</ele>
        <time>2017-02-15T08:23:44Z</time>
      </trkpt>
      <trkpt lat="46.62701" lon="5.88523">
        <ele>792.74</ele>
        <time>2017-02-15T08:23:56Z</time>
      </trkpt>
      <trkpt lat="46.62704" lon="5.88528">
        <ele>792.74</ele>
        <time>2017-02-15T08:24:01Z</time>
      </trkpt>
      <trkpt lat="46.62706" lon="5.88532">
        <ele>792.74</ele>
        <time>2017-02-15T08:24:04Z</time>
      </trkpt>
      <trkpt lat="46.62724" lon="5.88548">
        <ele>791.78</ele>
        <time>2017-02-15T08:24:16Z</time>
      </trkpt>
      <trkpt lat="46.62736" lon="5.88561">
        <ele>791.78</ele>
        <time>2017-02-15T08:24:27Z</time>
      </trkpt>
      <trkpt lat="46.62744" lon="5.8857">
        <ele>791.78</ele>
        <time>2017-02-15T08:24:36Z</time>
      </trkpt>
      <trkpt lat="46.62755" lon="5.88583">
        <ele>791.78</ele>
        <time>2017-02-15T08:24:44Z</time>
      </trkpt>
      <trkpt lat="46.6276" lon="5.88586">
        <ele>791.78</ele>
        <time>2017-02-15T08:24:47Z</time>
      </trkpt>
      <trkpt lat="46.62761" lon="5.88588">
        <ele>791.78</ele>
        <time>2017-02-15T08:24:48Z</time>
      </trkpt>
      <trkpt lat="46.62766" lon="5.88597">
        <ele>791.3</ele>
        <time>2017-02-15T08:24:53Z</time>
      </trkpt>
      <trkpt lat="46.62771" lon="5.88605">
        <ele>790.82</ele>
        <time>2017-02-15T08:25:02Z</time>
      </trkpt>
      <trkpt lat="46.62781" lon="5.88614">
        <ele>790.34</ele>
        <time>2017-02-15T08:25:08Z</time>
      </trkpt>
      <trkpt lat="46.6279" lon="5.88627">
        <ele>789.86</ele>
        <time>2017-02-15T08:25:20Z</time>
      </trkpt>
      <trkpt lat="46.628" lon="5.88632">
        <ele>789.86</ele>
        <time>2017-02-15T08:25:33Z</time>
      </trkpt>
      <trkpt lat="46.62802" lon="5.88636">
        <ele>789.86</ele>
        <time>2017-02-15T08:25:36Z</time>
      </trkpt>
      <trkpt lat="46.62804" lon="5.8864">
        <ele>789.86</ele>
        <time>2017-02-15T08:25:39Z</time>
      </trkpt>
      <trkpt lat="46.62818" lon="5.88656">
        <ele>790.34</ele>
        <time>2017-02-15T08:25:50Z</time>
      </trkpt>
      <trkpt lat="46.62818" lon="5.88656">
        <ele>790.34</ele>
        <time>2017-02-15T08:25:51Z</time>
      </trkpt>
      <trkpt lat="46.62825" lon="5.8866">
        <ele>789.86</ele>
        <time>2017-02-15T08:25:54Z</time>
      </trkpt>
      <trkpt lat="46.62835" lon="5.88673">
        <ele>789.86</ele>
        <time>2017-02-15T08:26:02Z</time>
      </trkpt>
      <trkpt lat="46.62839" lon="5.88675">
        <ele>789.38</ele>
        <time>2017-02-15T08:26:04Z</time>
      </trkpt>
      <trkpt lat="46.62845" lon="5.88685">
        <ele>788.42</ele>
        <time>2017-02-15T08:26:14Z</time>
      </trkpt>
      <trkpt lat="46.6285" lon="5.88691">
        <ele>788.9</ele>
        <time>2017-02-15T08:26:24Z</time>
      </trkpt>
      <trkpt lat="46.62852" lon="5.88698">
        <ele>788.42</ele>
        <time>2017-02-15T08:26:35Z</time>
      </trkpt>
      <trkpt lat="46.62861" lon="5.88706">
        <ele>788.42</ele>
        <time>2017-02-15T08:26:45Z</time>
      </trkpt>
      <trkpt lat="46.62878" lon="5.88712">
        <ele>787.94</ele>
        <time>2017-02-15T08:26:56Z</time>
      </trkpt>
      <trkpt lat="46.62882" lon="5.88717">
        <ele>787.46</ele>
        <time>2017-02-15T08:27:01Z</time>
      </trkpt>
      <trkpt lat="46.62886" lon="5.88719">
        <ele>787.46</ele>
        <time>2017-02-15T08:27:05Z</time>
      </trkpt>
      <trkpt lat="46.62893" lon="5.88726">
        <ele>787.46</ele>
        <time>2017-02-15T08:27:12Z</time>
      </trkpt>
      <trkpt lat="46.62897" lon="5.88738">
        <ele>786.98</ele>
        <time>2017-02-15T08:27:24Z</time>
      </trkpt>
      <trkpt lat="46.62899" lon="5.8874">
        <ele>787.46</ele>
        <time>2017-02-15T08:27:26Z</time>
      </trkpt>
      <trkpt lat="46.62913" lon="5.8875">
        <ele>786.5</ele>
        <time>2017-02-15T08:27:37Z</time>
      </trkpt>
      <trkpt lat="46.62928" lon="5.8876">
        <ele>786.5</ele>
        <time>2017-02-15T08:27:46Z</time>
      </trkpt>
      <trkpt lat="46.62932" lon="5.88764">
        <ele>786.5</ele>
        <time>2017-02-15T08:27:49Z</time>
      </trkpt>
      <trkpt lat="46.62933" lon="5.88768">
        <ele>786.5</ele>
        <time>2017-02-15T08:27:51Z</time>
      </trkpt>
      <trkpt lat="46.62934" lon="5.88776">
        <ele>785.53</ele>
        <time>2017-02-15T08:27:57Z</time>
      </trkpt>
      <trkpt lat="46.62945" lon="5.88785">
        <ele>785.05</ele>
        <time>2017-02-15T08:28:07Z</time>
      </trkpt>
      <trkpt lat="46.6295" lon="5.88789">
        <ele>785.05</ele>
        <time>2017-02-15T08:28:11Z</time>
      </trkpt>
      <trkpt lat="46.62956" lon="5.88794">
        <ele>784.57</ele>
        <time>2017-02-15T08:28:15Z</time>
      </trkpt>
      <trkpt lat="46.62971" lon="5.88805">
        <ele>784.09</ele>
        <time>2017-02-15T08:28:27Z</time>
      </trkpt>
      <trkpt lat="46.62984" lon="5.88816">
        <ele>783.13</ele>
        <time>2017-02-15T08:28:39Z</time>
      </trkpt>
      <trkpt lat="46.62995" lon="5.88822">
        <ele>783.61</ele>
        <time>2017-02-15T08:28:51Z</time>
      </trkpt>
      <trkpt lat="46.63005" lon="5.88832">
        <ele>784.09</ele>
        <time>2017-02-15T08:29:01Z</time>
      </trkpt>
      <trkpt lat="46.63006" lon="5.88833">
        <ele>783.61</ele>
        <time>2017-02-15T08:29:02Z</time>
      </trkpt>
      <trkpt lat="46.63006" lon="5.88841">
        <ele>782.65</ele>
        <time>2017-02-15T08:29:07Z</time>
      </trkpt>
      <trkpt lat="46.63022" lon="5.88856">
        <ele>782.17</ele>
        <time>2017-02-15T08:29:19Z</time>
      </trkpt>
      <trkpt lat="46.63023" lon="5.88857">
        <ele>782.17</ele>
        <time>2017-02-15T08:29:20Z</time>
      </trkpt>
      <trkpt lat="46.63033" lon="5.8887">
        <ele>781.69</ele>
        <time>2017-02-15T08:29:29Z</time>
      </trkpt>
      <trkpt lat="46.6304" lon="5.88884">
        <ele>781.69</ele>
        <time>2017-02-15T08:29:38Z</time>
      </trkpt>
      <trkpt lat="46.63045" lon="5.88892">
        <ele>781.21</ele>
        <time>2017-02-15T08:29:42Z</time>
      </trkpt>
      <trkpt lat="46.63049" lon="5.88899">
        <ele>781.21</ele>
        <time>2017-02-15T08:29:46Z</time>
      </trkpt>
      <trkpt lat="46.63052" lon="5.88906">
        <ele>781.21</ele>
        <time>2017-02-15T08:29:50Z</time>
      </trkpt>
      <trkpt lat="46.63062" lon="5.88916">
        <ele>780.73</ele>
        <time>2017-02-15T08:29:59Z</time>
      </trkpt>
      <trkpt lat="46.63073" lon="5.8893">
        <ele>780.73</ele>
        <time>2017-02-15T08:30:08Z</time>
      </trkpt>
      <trkpt lat="46.63081" lon="5.88943">
        <ele>779.77</ele>
        <time>2017-02-15T08:30:17Z</time>
      </trkpt>
      <trkpt lat="46.63084" lon="5.88946">
        <ele>780.25</ele>
        <time>2017-02-15T08:30:19Z</time>
      </trkpt>
      <trkpt lat="46.63093" lon="5.88961">
        <ele>779.77</ele>
        <time>2017-02-15T08:30:30Z</time>
      </trkpt>
      <trkpt lat="46.63099" lon="5.88966">
        <ele>779.29</ele>
        <time>2017-02-15T08:30:36Z</time>
      </trkpt>
      <trkpt lat="46.63102" lon="5.88969">
        <ele>779.77</ele>
        <time>2017-02-15T08:30:39Z</time>
      </trkpt>
      <trkpt lat="46.63115" lon="5.88984">
        <ele>779.29</ele>
        <time>2017-02-15T08:30:51Z</time>
      </trkpt>
      <trkpt lat="46.63119" lon="5.88989">
        <ele>779.29</ele>
        <time>2017-02-15T08:30:57Z</time>
      </trkpt>
      <trkpt lat="46.63123" lon="5.88993">
        <ele>779.77</ele>
        <time>2017-02-15T08:31:11Z</time>
      </trkpt>
      <trkpt lat="46.6313" lon="5.89019">
        <ele>778.81</ele>
        <time>2017-02-15T08:31:23Z</time>
      </trkpt>
      <trkpt lat="46.63132" lon="5.89023">
        <ele>778.32</ele>
        <time>2017-02-15T08:31:25Z</time>
      </trkpt>
      <trkpt lat="46.63145" lon="5.8904">
        <ele>778.32</ele>
        <time>2017-02-15T08:31:36Z</time>
      </trkpt>
      <trkpt lat="46.63156" lon="5.89066">
        <ele>777.84</ele>
        <time>2017-02-15T08:31:50Z</time>
      </trkpt>
      <trkpt lat="46.63162" lon="5.89075">
        <ele>777.36</ele>
        <time>2017-02-15T08:31:55Z</time>
      </trkpt>
      <trkpt lat="46.63163" lon="5.89077">
        <ele>777.36</ele>
        <time>2017-02-15T08:31:57Z</time>
      </trkpt>
      <trkpt lat="46.63167" lon="5.89087">
        <ele>777.36</ele>
        <time>2017-02-15T08:32:02Z</time>
      </trkpt>
      <trkpt lat="46.6318" lon="5.89108">
        <ele>776.88</ele>
        <time>2017-02-15T08:32:17Z</time>
      </trkpt>
      <trkpt lat="46.6319" lon="5.89123">
        <ele>776.88</ele>
        <time>2017-02-15T08:32:27Z</time>
      </trkpt>
      <trkpt lat="46.63191" lon="5.89126">
        <ele>776.4</ele>
        <time>2017-02-15T08:32:29Z</time>
      </trkpt>
      <trkpt lat="46.63207" lon="5.89144">
        <ele>775.92</ele>
        <time>2017-02-15T08:32:43Z</time>
      </trkpt>
      <trkpt lat="46.6322" lon="5.89157">
        <ele>776.4</ele>
        <time>2017-02-15T08:32:55Z</time>
      </trkpt>
      <trkpt lat="46.63237" lon="5.89169">
        <ele>776.4</ele>
        <time>2017-02-15T08:33:08Z</time>
      </trkpt>
      <trkpt lat="46.63252" lon="5.89187">
        <ele>776.4</ele>
        <time>2017-02-15T08:33:22Z</time>
      </trkpt>
      <trkpt lat="46.63254" lon="5.89209">
        <ele>776.4</ele>
        <time>2017-02-15T08:33:32Z</time>
      </trkpt>
      <trkpt lat="46.63255" lon="5.89233">
        <ele>776.4</ele>
        <time>2017-02-15T08:33:42Z</time>
      </trkpt>
      <trkpt lat="46.6326" lon="5.89245">
        <ele>775.92</ele>
        <time>2017-02-15T08:33:49Z</time>
      </trkpt>
      <trkpt lat="46.63273" lon="5.89265">
        <ele>775.44</ele>
        <time>2017-02-15T08:34:02Z</time>
      </trkpt>
      <trkpt lat="46.63289" lon="5.89288">
        <ele>775.44</ele>
        <time>2017-02-15T08:34:17Z</time>
      </trkpt>
      <trkpt lat="46.63308" lon="5.89305">
        <ele>774</ele>
        <time>2017-02-15T08:34:32Z</time>
      </trkpt>
      <trkpt lat="46.63328" lon="5.8931">
        <ele>773.52</ele>
        <time>2017-02-15T08:34:47Z</time>
      </trkpt>
      <trkpt lat="46.63331" lon="5.8931">
        <ele>774</ele>
        <time>2017-02-15T08:34:49Z</time>
      </trkpt>
      <trkpt lat="46.63348" lon="5.89326">
        <ele>774</ele>
        <time>2017-02-15T08:35:03Z</time>
      </trkpt>
      <trkpt lat="46.6335" lon="5.89328">
        <ele>773.52</ele>
        <time>2017-02-15T08:35:11Z</time>
      </trkpt>
      <trkpt lat="46.63355" lon="5.89337">
        <ele>773.52</ele>
        <time>2017-02-15T08:35:18Z</time>
      </trkpt>
      <trkpt lat="46.63357" lon="5.89345">
        <ele>773.52</ele>
        <time>2017-02-15T08:35:22Z</time>
      </trkpt>
      <trkpt lat="46.63359" lon="5.89349">
        <ele>773.04</ele>
        <time>2017-02-15T08:35:25Z</time>
      </trkpt>
      <trkpt lat="46.63362" lon="5.89358">
        <ele>773.04</ele>
        <time>2017-02-15T08:35:30Z</time>
      </trkpt>
      <trkpt lat="46.63364" lon="5.89366">
        <ele>773.04</ele>
        <time>2017-02-15T08:35:35Z</time>
      </trkpt>
      <trkpt lat="46.63366" lon="5.89374">
        <ele>773.04</ele>
        <time>2017-02-15T08:35:39Z</time>
      </trkpt>
      <trkpt lat="46.63373" lon="5.89382">
        <ele>773.04</ele>
        <time>2017-02-15T08:35:45Z</time>
      </trkpt>
      <trkpt lat="46.6338" lon="5.8941">
        <ele>772.56</ele>
        <time>2017-02-15T08:35:58Z</time>
      </trkpt>
      <trkpt lat="46.63387" lon="5.89427">
        <ele>772.56</ele>
        <time>2017-02-15T08:36:07Z</time>
      </trkpt>
      <trkpt lat="46.63392" lon="5.89441">
        <ele>772.56</ele>
        <time>2017-02-15T08:36:15Z</time>
      </trkpt>
      <trkpt lat="46.63395" lon="5.89449">
        <ele>772.56</ele>
        <time>2017-02-15T08:36:20Z</time>
      </trkpt>
      <trkpt lat="46.63399" lon="5.89463">
        <ele>773.04</ele>
        <time>2017-02-15T08:36:27Z</time>
      </trkpt>
      <trkpt lat="46.63403" lon="5.89474">
        <ele>773.52</ele>
        <time>2017-02-15T08:36:32Z</time>
      </trkpt>
      <trkpt lat="46.63405" lon="5.89487">
        <ele>773.04</ele>
        <time>2017-02-15T08:36:38Z</time>
      </trkpt>
      <trkpt lat="46.63407" lon="5.89509">
        <ele>774</ele>
        <time>2017-02-15T08:36:49Z</time>
      </trkpt>
      <trkpt lat="46.63404" lon="5.89533">
        <ele>774.96</ele>
        <time>2017-02-15T08:37:02Z</time>
      </trkpt>
      <trkpt lat="46.63403" lon="5.89553">
        <ele>775.92</ele>
        <time>2017-02-15T08:37:12Z</time>
      </trkpt>
      <trkpt lat="46.63402" lon="5.89571">
        <ele>777.36</ele>
        <time>2017-02-15T08:37:23Z</time>
      </trkpt>
      <trkpt lat="46.63399" lon="5.89584">
        <ele>777.36</ele>
        <time>2017-02-15T08:37:29Z</time>
      </trkpt>
      <trkpt lat="46.63399" lon="5.89608">
        <ele>778.32</ele>
        <time>2017-02-15T08:37:40Z</time>
      </trkpt>
      <trkpt lat="46.63403" lon="5.89629">
        <ele>778.81</ele>
        <time>2017-02-15T08:37:53Z</time>
      </trkpt>
      <trkpt lat="46.63411" lon="5.89656">
        <ele>780.25</ele>
        <time>2017-02-15T08:38:07Z</time>
      </trkpt>
      <trkpt lat="46.63411" lon="5.89658">
        <ele>780.73</ele>
        <time>2017-02-15T08:38:08Z</time>
      </trkpt>
      <trkpt lat="46.63422" lon="5.89673">
        <ele>781.21</ele>
        <time>2017-02-15T08:38:20Z</time>
      </trkpt>
      <trkpt lat="46.63429" lon="5.89684">
        <ele>781.69</ele>
        <time>2017-02-15T08:38:27Z</time>
      </trkpt>
      <trkpt lat="46.63441" lon="5.89707">
        <ele>781.69</ele>
        <time>2017-02-15T08:38:42Z</time>
      </trkpt>
      <trkpt lat="46.63456" lon="5.89719">
        <ele>782.17</ele>
        <time>2017-02-15T08:38:56Z</time>
      </trkpt>
      <trkpt lat="46.63466" lon="5.89717">
        <ele>782.65</ele>
        <time>2017-02-15T08:39:04Z</time>
      </trkpt>
      <trkpt lat="46.63478" lon="5.89714">
        <ele>783.13</ele>
        <time>2017-02-15T08:39:15Z</time>
      </trkpt>
      <trkpt lat="46.63485" lon="5.89711">
        <ele>784.09</ele>
        <time>2017-02-15T08:39:23Z</time>
      </trkpt>
      <trkpt lat="46.635" lon="5.89708">
        <ele>785.53</ele>
        <time>2017-02-15T08:39:33Z</time>
      </trkpt>
      <trkpt lat="46.63504" lon="5.89706">
        <ele>785.53</ele>
        <time>2017-02-15T08:39:36Z</time>
      </trkpt>
      <trkpt lat="46.63517" lon="5.89702">
        <ele>786.98</ele>
        <time>2017-02-15T08:39:47Z</time>
      </trkpt>
      <trkpt lat="46.6353" lon="5.89701">
        <ele>787.94</ele>
        <time>2017-02-15T08:39:57Z</time>
      </trkpt>
      <trkpt lat="46.63546" lon="5.89699">
        <ele>788.42</ele>
        <time>2017-02-15T08:40:10Z</time>
      </trkpt>
      <trkpt lat="46.63566" lon="5.89701">
        <ele>790.34</ele>
        <time>2017-02-15T08:40:23Z</time>
      </trkpt>
      <trkpt lat="46.63583" lon="5.89704">
        <ele>790.82</ele>
        <time>2017-02-15T08:40:35Z</time>
      </trkpt>
      <trkpt lat="46.63595" lon="5.89704">
        <ele>791.3</ele>
        <time>2017-02-15T08:40:45Z</time>
      </trkpt>
      <trkpt lat="46.63611" lon="5.89704">
        <ele>792.74</ele>
        <time>2017-02-15T08:40:57Z</time>
      </trkpt>
      <trkpt lat="46.63614" lon="5.89703">
        <ele>792.74</ele>
        <time>2017-02-15T08:41:00Z</time>
      </trkpt>
      <trkpt lat="46.63628" lon="5.89702">
        <ele>793.22</ele>
        <time>2017-02-15T08:41:11Z</time>
      </trkpt>
      <trkpt lat="46.63644" lon="5.8971">
        <ele>793.71</ele>
        <time>2017-02-15T08:41:23Z</time>
      </trkpt>
      <trkpt lat="46.63649" lon="5.89714">
        <ele>793.71</ele>
        <time>2017-02-15T08:41:27Z</time>
      </trkpt>
      <trkpt lat="46.63655" lon="5.89719">
        <ele>793.22</ele>
        <time>2017-02-15T08:41:31Z</time>
      </trkpt>
      <trkpt lat="46.63668" lon="5.89725">
        <ele>793.22</ele>
        <time>2017-02-15T08:41:41Z</time>
      </trkpt>
      <trkpt lat="46.63672" lon="5.89728">
        <ele>793.71</ele>
        <time>2017-02-15T08:41:44Z</time>
      </trkpt>
      <trkpt lat="46.63689" lon="5.89738">
        <ele>793.22</ele>
        <time>2017-02-15T08:41:58Z</time>
      </trkpt>
      <trkpt lat="46.63693" lon="5.8974">
        <ele>792.74</ele>
        <time>2017-02-15T08:42:01Z</time>
      </trkpt>
      <trkpt lat="46.63707" lon="5.89754">
        <ele>791.78</ele>
        <time>2017-02-15T08:42:14Z</time>
      </trkpt>
      <trkpt lat="46.63707" lon="5.89754">
        <ele>791.78</ele>
        <time>2017-02-15T08:42:15Z</time>
      </trkpt>
      <trkpt lat="46.63716" lon="5.89763">
        <ele>791.78</ele>
        <time>2017-02-15T08:42:21Z</time>
      </trkpt>
      <trkpt lat="46.63718" lon="5.89773">
        <ele>791.78</ele>
        <time>2017-02-15T08:42:26Z</time>
      </trkpt>
      <trkpt lat="46.63725" lon="5.89782">
        <ele>791.78</ele>
        <time>2017-02-15T08:42:33Z</time>
      </trkpt>
      <trkpt lat="46.6374" lon="5.89787">
        <ele>793.22</ele>
        <time>2017-02-15T08:42:45Z</time>
      </trkpt>
      <trkpt lat="46.63741" lon="5.89787">
        <ele>793.22</ele>
        <time>2017-02-15T08:42:46Z</time>
      </trkpt>
      <trkpt lat="46.63746" lon="5.89792">
        <ele>793.71</ele>
        <time>2017-02-15T08:42:50Z</time>
      </trkpt>
      <trkpt lat="46.63751" lon="5.89796">
        <ele>794.19</ele>
        <time>2017-02-15T08:42:54Z</time>
      </trkpt>
      <trkpt lat="46.63766" lon="5.8981">
        <ele>794.67</ele>
        <time>2017-02-15T08:43:07Z</time>
      </trkpt>
      <trkpt lat="46.63782" lon="5.89818">
        <ele>793.71</ele>
        <time>2017-02-15T08:43:19Z</time>
      </trkpt>
      <trkpt lat="46.63799" lon="5.89821">
        <ele>795.63</ele>
        <time>2017-02-15T08:43:33Z</time>
      </trkpt>
      <trkpt lat="46.63818" lon="5.89829">
        <ele>795.63</ele>
        <time>2017-02-15T08:43:46Z</time>
      </trkpt>
      <trkpt lat="46.63833" lon="5.89832">
        <ele>796.59</ele>
        <time>2017-02-15T08:43:59Z</time>
      </trkpt>
      <trkpt lat="46.6385" lon="5.8983">
        <ele>796.59</ele>
        <time>2017-02-15T08:44:11Z</time>
      </trkpt>
      <trkpt lat="46.63857" lon="5.89834">
        <ele>796.11</ele>
        <time>2017-02-15T08:44:16Z</time>
      </trkpt>
      <trkpt lat="46.63866" lon="5.8984">
        <ele>796.59</ele>
        <time>2017-02-15T08:44:24Z</time>
      </trkpt>
      <trkpt lat="46.6388" lon="5.89844">
        <ele>795.63</ele>
        <time>2017-02-15T08:44:33Z</time>
      </trkpt>
      <trkpt lat="46.63883" lon="5.89846">
        <ele>795.63</ele>
        <time>2017-02-15T08:44:35Z</time>
      </trkpt>
      <trkpt lat="46.639" lon="5.89858">
        <ele>796.59</ele>
        <time>2017-02-15T08:44:47Z</time>
      </trkpt>
      <trkpt lat="46.63909" lon="5.89861">
        <ele>797.07</ele>
        <time>2017-02-15T08:44:52Z</time>
      </trkpt>
      <trkpt lat="46.63922" lon="5.89875">
        <ele>796.11</ele>
        <time>2017-02-15T08:45:05Z</time>
      </trkpt>
      <trkpt lat="46.63923" lon="5.89877">
        <ele>795.63</ele>
        <time>2017-02-15T08:45:07Z</time>
      </trkpt>
      <trkpt lat="46.63925" lon="5.89886">
        <ele>794.67</ele>
        <time>2017-02-15T08:45:13Z</time>
      </trkpt>
      <trkpt lat="46.63928" lon="5.89888">
        <ele>794.19</ele>
        <time>2017-02-15T08:45:15Z</time>
      </trkpt>
      <trkpt lat="46.63957" lon="5.89901">
        <ele>793.71</ele>
        <time>2017-02-15T08:45:29Z</time>
      </trkpt>
      <trkpt lat="46.63957" lon="5.89905">
        <ele>793.71</ele>
        <time>2017-02-15T08:45:31Z</time>
      </trkpt>
      <trkpt lat="46.63966" lon="5.89917">
        <ele>792.74</ele>
        <time>2017-02-15T08:45:38Z</time>
      </trkpt>
      <trkpt lat="46.63976" lon="5.89923">
        <ele>792.74</ele>
        <time>2017-02-15T08:45:44Z</time>
      </trkpt>
      <trkpt lat="46.6399" lon="5.89942">
        <ele>791.78</ele>
        <time>2017-02-15T08:45:58Z</time>
      </trkpt>
      <trkpt lat="46.64005" lon="5.89954">
        <ele>790.82</ele>
        <time>2017-02-15T08:46:09Z</time>
      </trkpt>
      <trkpt lat="46.64006" lon="5.89955">
        <ele>790.34</ele>
        <time>2017-02-15T08:46:10Z</time>
      </trkpt>
      <trkpt lat="46.64008" lon="5.8996">
        <ele>790.34</ele>
        <time>2017-02-15T08:46:12Z</time>
      </trkpt>
      <trkpt lat="46.6401" lon="5.8997">
        <ele>789.86</ele>
        <time>2017-02-15T08:46:15Z</time>
      </trkpt>
      <trkpt lat="46.64012" lon="5.89975">
        <ele>789.38</ele>
        <time>2017-02-15T08:46:18Z</time>
      </trkpt>
      <trkpt lat="46.64025" lon="5.89997">
        <ele>788.9</ele>
        <time>2017-02-15T08:46:31Z</time>
      </trkpt>
      <trkpt lat="46.64039" lon="5.90017">
        <ele>786.98</ele>
        <time>2017-02-15T08:46:45Z</time>
      </trkpt>
      <trkpt lat="46.64046" lon="5.90015">
        <ele>785.53</ele>
        <time>2017-02-15T08:46:52Z</time>
      </trkpt>
      <trkpt lat="46.6405" lon="5.90008">
        <ele>785.05</ele>
        <time>2017-02-15T08:46:56Z</time>
      </trkpt>
      <trkpt lat="46.64071" lon="5.89984">
        <ele>784.09</ele>
        <time>2017-02-15T08:47:11Z</time>
      </trkpt>
      <trkpt lat="46.64081" lon="5.89959">
        <ele>783.61</ele>
        <time>2017-02-15T08:47:25Z</time>
      </trkpt>
      <trkpt lat="46.64085" lon="5.89954">
        <ele>784.09</ele>
        <time>2017-02-15T08:47:28Z</time>
      </trkpt>
      <trkpt lat="46.64097" lon="5.8995">
        <ele>784.57</ele>
        <time>2017-02-15T08:47:37Z</time>
      </trkpt>
      <trkpt lat="46.64114" lon="5.89968">
        <ele>785.05</ele>
        <time>2017-02-15T08:47:51Z</time>
      </trkpt>
      <trkpt lat="46.64127" lon="5.89984">
        <ele>784.09</ele>
        <time>2017-02-15T08:48:02Z</time>
      </trkpt>
      <trkpt lat="46.64139" lon="5.90003">
        <ele>783.61</ele>
        <time>2017-02-15T08:48:15Z</time>
      </trkpt>
      <trkpt lat="46.64151" lon="5.90024">
        <ele>781.69</ele>
        <time>2017-02-15T08:48:28Z</time>
      </trkpt>
      <trkpt lat="46.64166" lon="5.90049">
        <ele>780.73</ele>
        <time>2017-02-15T08:48:43Z</time>
      </trkpt>
      <trkpt lat="46.64167" lon="5.90054">
        <ele>781.21</ele>
        <time>2017-02-15T08:48:46Z</time>
      </trkpt>
      <trkpt lat="46.64173" lon="5.90061">
        <ele>780.73</ele>
        <time>2017-02-15T08:48:51Z</time>
      </trkpt>
      <trkpt lat="46.64183" lon="5.90068">
        <ele>782.17</ele>
        <time>2017-02-15T08:49:04Z</time>
      </trkpt>
      <trkpt lat="46.64184" lon="5.90064">
        <ele>782.17</ele>
        <time>2017-02-15T08:49:15Z</time>
      </trkpt>
      <trkpt lat="46.64184" lon="5.90058">
        <ele>783.61</ele>
        <time>2017-02-15T08:49:29Z</time>
      </trkpt>
      <trkpt lat="46.64184" lon="5.90059">
        <ele>778.32</ele>
        <time>2017-02-15T08:49:31Z</time>
      </trkpt>
      <trkpt lat="46.64184" lon="5.90058">
        <ele>784.09</ele>
        <time>2017-02-15T08:49:32Z</time>
      </trkpt>
      <trkpt lat="46.64184" lon="5.90059">
        <ele>782.65</ele>
        <time>2017-02-15T08:49:35Z</time>
      </trkpt>
      <trkpt lat="46.64185" lon="5.90059">
        <ele>781.69</ele>
        <time>2017-02-15T08:49:55Z</time>
      </trkpt>
    </trkseg>
  </trk>
</gpx>